Observation data for Fort Chadbourne on 05/27/2019      Previous  Date  Next       Current Mesonet Observations  Soil Data  Daily Summary Page  Observations in Plain Language
KCH1 270500Z 14006KT 23/20 A2991 RMK A01 T02280195  RH  082%=      5-min Rain = 0
KCH1 270501Z 14006KT 23/20 A2991 RMK A01 T02280195  RH  082%=      5-min Rain = 0
KCH1 270502Z 14007KT 23/20 A2991 RMK A01 T02270196  RH  082%=      5-min Rain = 0
KCH1 270503Z 14006KT 23/20 A299 RMK A01 T02270195  RH  083%=      5-min Rain = 0
KCH1 270504Z 13006KT 23/20 A299 RMK A01 T02260195  RH  082%=      5-min Rain = 0
KCH1 270505Z 13006KT 23/20 A299 RMK A01 T02260195  RH  083%=      5-min Rain = 0
KCH1 270506Z 14005KT 23/20 A299 RMK A01 T02260196  RH  083%=      5-min Rain = 0
KCH1 270507Z 14005KT 23/20 A2991 RMK A01 T02260195  RH  083%=      5-min Rain = 0
KCH1 270508Z 14005KT 23/20 A299 RMK A01 T02260195  RH  083%=      5-min Rain = 0
KCH1 270509Z 14005KT 23/20 A299 RMK A01 T02250195  RH  083%=      5-min Rain = 0
KCH1 270510Z 14006KT 23/20 A2991 RMK A01 T02250195  RH  083%=      5-min Rain = 0
KCH1 270511Z 14005KT 22/20 A2991 RMK A01 T02240195  RH  084%=      5-min Rain = 0
KCH1 270512Z 14004KT 23/20 A2991 RMK A01 T02250196  RH  084%=      5-min Rain = 0
KCH1 270513Z 14004KT 23/20 A2991 RMK A01 T02250196  RH  084%=      5-min Rain = 0
KCH1 270514Z 14005KT 23/20 A2991 RMK A01 T02250196  RH  084%=      5-min Rain = 0
KCH1 270515Z 14004KT 23/20 A2991 RMK A01 T02250196  RH  084%=      5-min Rain = 0
KCH1 270516Z 13005KT 23/20 A2991 RMK A01 T02250196  RH  084%=      5-min Rain = 0
KCH1 270517Z 13005KT 22/20 A2991 RMK A01 T02240195  RH  084%=      5-min Rain = 0
KCH1 270518Z 13005KT 22/20 A2991 RMK A01 T02230195  RH  084%=      5-min Rain = 0
KCH1 270519Z 13005KT 22/20 A2991 RMK A01 T02230195  RH  085%=      5-min Rain = 0
KCH1 270520Z 12005KT 22/20 A2991 RMK A01 T02220195  RH  085%=      5-min Rain = 0
KCH1 270521Z 12005KT 22/20 A2991 RMK A01 T02220195  RH  085%=      5-min Rain = 0
KCH1 270522Z 12004KT 22/20 A2991 RMK A01 T02220195  RH  085%=      5-min Rain = 0
KCH1 270523Z 11005KT 22/20 A2991 RMK A01 T02220195  RH  085%=      5-min Rain = 0
KCH1 270524Z 12004KT 22/20 A2991 RMK A01 T02220195  RH  085%=      5-min Rain = 0
KCH1 270525Z 11004KT 22/20 A2991 RMK A01 T02220195  RH  085%=      5-min Rain = 0
KCH1 270526Z 10003KT 22/20 A2991 RMK A01 T02220195  RH  085%=      5-min Rain = 0
KCH1 270527Z 11004KT 22/20 A2991 RMK A01 T02210195  RH  085%=      5-min Rain = 0
KCH1 270528Z 10004KT 22/20 A2991 RMK A01 T02210195  RH  085%=      5-min Rain = 0
KCH1 270529Z 10004KT 22/20 A2991 RMK A01 T02200195  RH  086%=      5-min Rain = 0
KCH1 270530Z 12004KT 22/20 A2991 RMK A01 T02190195  RH  086%=      5-min Rain = 0
KCH1 270531Z 10004KT 22/20 A2991 RMK A01 T02190195  RH  086%=      5-min Rain = 0
KCH1 270532Z 11005KT 22/20 A2991 RMK A01 T02200195  RH  086%=      5-min Rain = 0
KCH1 270533Z 11005KT 22/20 A2991 RMK A01 T02200195  RH  086%=      5-min Rain = 0
KCH1 270534Z 11005KT 22/20 A2991 RMK A01 T02200195  RH  086%=      5-min Rain = 0
KCH1 270535Z 12005KT 22/20 A2991 RMK A01 T02200195  RH  086%=      5-min Rain = 0
KCH1 270536Z 11005KT 22/20 A2991 RMK A01 T02190195  RH  086%=      5-min Rain = 0
KCH1 270537Z 12006KT 22/20 A2991 RMK A01 T02190195  RH  086%=      5-min Rain = 0
KCH1 270538Z 12006KT 22/20 A2991 RMK A01 T02190195  RH  086%=      5-min Rain = 0
KCH1 270539Z 12005KT 22/20 A2991 RMK A01 T02190196  RH  086%=      5-min Rain = 0
KCH1 270540Z 11006KT 22/20 A2991 RMK A01 T02190195  RH  086%=      5-min Rain = 0
KCH1 270541Z 12005KT 22/20 A2991 RMK A01 T02190195  RH  086%=      5-min Rain = 0
KCH1 270542Z 12007KT 22/20 A2991 RMK A01 T02190195  RH  086%=      5-min Rain = 0
KCH1 270543Z 12006KT 22/20 A2991 RMK A01 T02200196  RH  086%=      5-min Rain = 0
KCH1 270544Z 12005KT 22/20 A299 RMK A01 T02200196  RH  086%=      5-min Rain = 0
KCH1 270545Z 12006KT 22/20 A299 RMK A01 T02200195  RH  086%=      5-min Rain = 0
KCH1 270546Z 12006KT 22/20 A299 RMK A01 T02210196  RH  086%=      5-min Rain = 0
KCH1 270547Z 12006KT 22/20 A299 RMK A01 T02200196  RH  086%=      5-min Rain = 0
KCH1 270548Z 12007KT 22/20 A299 RMK A01 T02200196  RH  086%=      5-min Rain = 0
KCH1 270549Z 12006KT 22/20 A299 RMK A01 T02200196  RH  086%=      5-min Rain = 0
KCH1 270550Z 12006KT 22/20 A299 RMK A01 T02210196  RH  086%=      5-min Rain = 0
KCH1 270551Z 12006KT 22/20 A299 RMK A01 T02200196  RH  086%=      5-min Rain = 0
KCH1 270552Z 13006KT 22/20 A299 RMK A01 T02200196  RH  086%=      5-min Rain = 0
KCH1 270553Z 13007KT 22/20 A299 RMK A01 T02200195  RH  086%=      5-min Rain = 0
KCH1 270554Z 13007KT 22/20 A299 RMK A01 T02200195  RH  086%=      5-min Rain = 0
KCH1 270555Z 12006KT 22/20 A299 RMK A01 T02200196  RH  086%=      5-min Rain = 0
KCH1 270556Z 12007KT 22/20 A299 RMK A01 T02200196  RH  086%=      5-min Rain = 0
KCH1 270557Z 13006KT 22/20 A299 RMK A01 T02200196  RH  086%=      5-min Rain = 0
KCH1 270558Z 12006KT 22/20 A299 RMK A01 T02210196  RH  086%=      5-min Rain = 0
KCH1 270559Z 12006KT 22/20 A299 RMK A01 T02200195  RH  086%=      5-min Rain = 0
KCH1 270600Z 13007KT 22/20 A299 RMK A01 T02210196  RH  085%=      5-min Rain = 0
KCH1 270601Z 13006KT 22/20 A299 RMK A01 T02210196  RH  085%=      5-min Rain = 0
KCH1 270602Z 13006KT 22/20 A299 RMK A01 T02220196  RH  085%=      5-min Rain = 0
KCH1 270603Z 13006KT 22/20 A299 RMK A01 T02220196  RH  085%=      5-min Rain = 0
KCH1 270604Z 14006KT 22/20 A299 RMK A01 T02210196  RH  086%=      5-min Rain = 0
KCH1 270605Z 14007KT 22/20 A299 RMK A01 T02210195  RH  085%=      5-min Rain = 0
KCH1 270606Z 14006KT 22/20 A299 RMK A01 T02220196  RH  085%=      5-min Rain = 0
KCH1 270607Z 14006KT 22/20 A299 RMK A01 T02220196  RH  085%=      5-min Rain = 0
KCH1 270608Z 14007KT 22/20 A299 RMK A01 T02220196  RH  085%=      5-min Rain = 0
KCH1 270609Z 14008KT 22/20 A299 RMK A01 T02220195  RH  085%=      5-min Rain = 0
KCH1 270610Z 14008KT 22/20 A299 RMK A01 T02230195  RH  085%=      5-min Rain = 0
KCH1 270611Z 14008KT 22/20 A299 RMK A01 T02230195  RH  085%=      5-min Rain = 0
KCH1 270612Z 15008KT 22/20 A299 RMK A01 T02230196  RH  085%=      5-min Rain = 0
KCH1 270613Z 14008KT 22/20 A299 RMK A01 T02230196  RH  084%=      5-min Rain = 0
KCH1 270614Z 15009KT 22/20 A299 RMK A01 T02230195  RH  084%=      5-min Rain = 0
KCH1 270615Z 15007KT 22/20 A299 RMK A01 T02230195  RH  084%=      5-min Rain = 0
KCH1 270616Z 15007KT 22/20 A299 RMK A01 T02230196  RH  085%=      5-min Rain = 0
KCH1 270617Z 15007KT 22/20 A299 RMK A01 T02220196  RH  085%=      5-min Rain = 0
KCH1 270618Z 15007KT 22/20 A299 RMK A01 T02220196  RH  085%=      5-min Rain = 0
KCH1 270619Z 15007KT 22/20 A299 RMK A01 T02220195  RH  085%=      5-min Rain = 0
KCH1 270620Z 15008KT 22/20 A299 RMK A01 T02220195  RH  085%=      5-min Rain = 0
KCH1 270621Z 15007KT 22/20 A299 RMK A01 T02220196  RH  085%=      5-min Rain = 0
KCH1 270622Z 15008KT 22/20 A299 RMK A01 T02220195  RH  085%=      5-min Rain = 0
KCH1 270623Z 15007KT 22/20 A299 RMK A01 T02220195  RH  085%=      5-min Rain = 0
KCH1 270624Z 15007KT 22/20 A299 RMK A01 T02220196  RH  085%=      5-min Rain = 0
KCH1 270625Z 15007KT 22/20 A299 RMK A01 T02210195  RH  085%=      5-min Rain = 0
KCH1 270626Z 15007KT 22/20 A299 RMK A01 T02210195  RH  085%=      5-min Rain = 0
KCH1 270627Z 15009KT 22/20 A299 RMK A01 T02210195  RH  085%=      5-min Rain = 0
KCH1 270628Z 15007KT 22/20 A299 RMK A01 T02220195  RH  085%=      5-min Rain = 0
KCH1 270629Z 15008KT 22/20 A299 RMK A01 T02210195  RH  085%=      5-min Rain = 0
KCH1 270630Z 15006KT 22/20 A299 RMK A01 T02210195  RH  085%=      5-min Rain = 0
KCH1 270631Z 15007KT 22/20 A299 RMK A01 T02210195  RH  085%=      5-min Rain = 0
KCH1 270632Z 15008KT 22/20 A299 RMK A01 T02210195  RH  085%=      5-min Rain = 0
KCH1 270633Z 15009KT 22/20 A299 RMK A01 T02210195  RH  085%=      5-min Rain = 0
KCH1 270634Z 15008KT 22/20 A299 RMK A01 T02220195  RH  085%=      5-min Rain = 0
KCH1 270635Z 15009KT 22/20 A299 RMK A01 T02220195  RH  085%=      5-min Rain = 0
KCH1 270636Z 15007KT 22/20 A299 RMK A01 T02220195  RH  085%=      5-min Rain = 0
KCH1 270637Z 15007KT 22/20 A299 RMK A01 T02220195  RH  085%=      5-min Rain = 0
KCH1 270638Z 15007KT 22/20 A299 RMK A01 T02220195  RH  085%=      5-min Rain = 0
KCH1 270639Z 15008KT 22/20 A299 RMK A01 T02220195  RH  085%=      5-min Rain = 0
KCH1 270640Z 15009KT 22/19 A299 RMK A01 T02210194  RH  085%=      5-min Rain = 0
KCH1 270641Z 15007KT 22/20 A299 RMK A01 T02220195  RH  084%=      5-min Rain = 0
KCH1 270642Z 15008KT 22/20 A299 RMK A01 T02220195  RH  084%=      5-min Rain = 0
KCH1 270643Z 15008KT 22/20 A2989 RMK A01 T02220195  RH  085%=      5-min Rain = 0
KCH1 270644Z 15009KT 22/19 A2989 RMK A01 T02220194  RH  084%=      5-min Rain = 0
KCH1 270645Z 15008KT 22/19 A2989 RMK A01 T02220194  RH  084%=      5-min Rain = 0
KCH1 270646Z 15007KT 22/20 A2989 RMK A01 T02220195  RH  084%=      5-min Rain = 0
KCH1 270647Z 15008KT 22/20 A2989 RMK A01 T02220195  RH  085%=      5-min Rain = 0
KCH1 270648Z 15008KT 22/20 A2989 RMK A01 T02220195  RH  084%=      5-min Rain = 0
KCH1 270649Z 15007KT 22/19 A2989 RMK A01 T02220194  RH  084%=      5-min Rain = 0
KCH1 270650Z 15007KT 22/20 A2989 RMK A01 T02220195  RH  084%=      5-min Rain = 0
KCH1 270651Z 15008KT 22/20 A2989 RMK A01 T02220195  RH  085%=      5-min Rain = 0
KCH1 270652Z 15008KT 22/20 A2989 RMK A01 T02210195  RH  085%=      5-min Rain = 0
KCH1 270653Z 14008KT 22/20 A2989 RMK A01 T02220195  RH  085%=      5-min Rain = 0
KCH1 270654Z 15008KT 22/19 A2989 RMK A01 T02220194  RH  085%=      5-min Rain = 0
KCH1 270655Z 15009KT 22/19 A2989 RMK A01 T02220194  RH  084%=      5-min Rain = 0
KCH1 270656Z 15009KT 22/20 A2989 RMK A01 T02230195  RH  084%=      5-min Rain = 0
KCH1 270657Z 15009KT 22/19 A2989 RMK A01 T02220194  RH  084%=      5-min Rain = 0
KCH1 270658Z 15007KT 22/19 A2989 RMK A01 T02220194  RH  084%=      5-min Rain = 0
KCH1 270659Z 14007KT 22/20 A2989 RMK A01 T02220195  RH  084%=      5-min Rain = 0
KCH1 270700Z 15008KT 22/20 A2989 RMK A01 T02220195  RH  085%=      5-min Rain = 0
KCH1 270701Z 14007KT 22/20 A2989 RMK A01 T02220195  RH  085%=      5-min Rain = 0
KCH1 270702Z 14009KT 22/20 A2989 RMK A01 T02210195  RH  085%=      5-min Rain = 0
KCH1 270703Z 15008KT 22/20 A2989 RMK A01 T02210195  RH  085%=      5-min Rain = 0
KCH1 270704Z 15009KT 22/20 A2989 RMK A01 T02210195  RH  085%=      5-min Rain = 0
KCH1 270705Z 15007KT 22/20 A2989 RMK A01 T02210195  RH  085%=      5-min Rain = 0
KCH1 270706Z 15008KT 22/20 A2989 RMK A01 T02210195  RH  085%=      5-min Rain = 0
KCH1 270707Z 15007KT 22/20 A2989 RMK A01 T02210195  RH  085%=      5-min Rain = 0
KCH1 270708Z 15007KT 22/20 A2989 RMK A01 T02210195  RH  085%=      5-min Rain = 0
KCH1 270709Z 15008KT 22/20 A2989 RMK A01 T02200195  RH  085%=      5-min Rain = 0
KCH1 270710Z 15009KT 22/20 A2989 RMK A01 T02200195  RH  085%=      5-min Rain = 0
KCH1 270711Z 15009KT 22/20 A2989 RMK A01 T02210195  RH  085%=      5-min Rain = 0
KCH1 270712Z 15008KT 22/20 A2989 RMK A01 T02210195  RH  085%=      5-min Rain = 0
KCH1 270713Z 15010KT 22/20 A2989 RMK A01 T02210195  RH  085%=      5-min Rain = 0
KCH1 270714Z 15009KT 22/20 A2989 RMK A01 T02220195  RH  085%=      5-min Rain = 0
KCH1 270715Z 16007KT 22/20 A2989 RMK A01 T02220195  RH  085%=      5-min Rain = 0
KCH1 270716Z 15009KT 22/20 A2989 RMK A01 T02220195  RH  085%=      5-min Rain = 0
KCH1 270717Z 15009KT 22/20 A2988 RMK A01 T02220195  RH  085%=      5-min Rain = 0
KCH1 270718Z 16008KT 22/20 A2988 RMK A01 T02220195  RH  085%=      5-min Rain = 0
KCH1 270719Z 15008KT 22/20 A2988 RMK A01 T02210195  RH  085%=      5-min Rain = 0
KCH1 270720Z 16009KT 22/20 A2988 RMK A01 T02210195  RH  085%=      5-min Rain = 0
KCH1 270721Z 15009KT 22/20 A2988 RMK A01 T02210195  RH  085%=      5-min Rain = 0
KCH1 270722Z 15008KT 22/20 A2988 RMK A01 T02210195  RH  085%=      5-min Rain = 0
KCH1 270723Z 15009KT 22/20 A2988 RMK A01 T02210195  RH  085%=      5-min Rain = 0
KCH1 270724Z 15008KT 22/20 A2988 RMK A01 T02210195  RH  085%=      5-min Rain = 0
KCH1 270725Z 15008KT 22/20 A2988 RMK A01 T02200195  RH  086%=      5-min Rain = 0
KCH1 270726Z 16010KT 22/20 A2988 RMK A01 T02200195  RH  086%=      5-min Rain = 0
KCH1 270727Z 15009KT 22/20 A2988 RMK A01 T02200195  RH  086%=      5-min Rain = 0
KCH1 270728Z 15009KT 22/20 A2988 RMK A01 T02200195  RH  086%=      5-min Rain = 0
KCH1 270729Z 16008KT 22/20 A2988 RMK A01 T02200195  RH  085%=      5-min Rain = 0
KCH1 270730Z 15009KT 22/20 A2988 RMK A01 T02200195  RH  086%=      5-min Rain = 0
KCH1 270731Z 15008KT 22/20 A2988 RMK A01 T02200195  RH  086%=      5-min Rain = 0
KCH1 270732Z 15009KT 22/20 A2988 RMK A01 T02200195  RH  086%=      5-min Rain = 0
KCH1 270733Z 15009KT 22/20 A2988 RMK A01 T02200195  RH  086%=      5-min Rain = 0
KCH1 270734Z 15009KT 22/20 A2988 RMK A01 T02190195  RH  086%=      5-min Rain = 0
KCH1 270735Z 16010KT 22/20 A2988 RMK A01 T02200195  RH  086%=      5-min Rain = 0
KCH1 270736Z 15007KT 22/20 A2988 RMK A01 T02200195  RH  086%=      5-min Rain = 0
KCH1 270737Z 15007KT 22/20 A2988 RMK A01 T02200195  RH  086%=      5-min Rain = 0
KCH1 270738Z 15009KT 22/20 A2988 RMK A01 T02200195  RH  086%=      5-min Rain = 0
KCH1 270739Z 15008KT 22/20 A2988 RMK A01 T02200195  RH  086%=      5-min Rain = 0
KCH1 270740Z 15008KT 22/20 A2988 RMK A01 T02200195  RH  086%=      5-min Rain = 0
KCH1 270741Z 15007KT 22/20 A2988 RMK A01 T02200196  RH  086%=      5-min Rain = 0
KCH1 270742Z 15009KT 22/20 A2988 RMK A01 T02190195  RH  086%=      5-min Rain = 0
KCH1 270743Z 14007KT 22/20 A2988 RMK A01 T02190196  RH  087%=      5-min Rain = 0
KCH1 270744Z 15009KT 22/20 A2988 RMK A01 T02180195  RH  087%=      5-min Rain = 0
KCH1 270745Z 14008KT 22/20 A2988 RMK A01 T02180196  RH  087%=      5-min Rain = 0
KCH1 270746Z 15009KT 22/20 A2988 RMK A01 T02180196  RH  087%=      5-min Rain = 0
KCH1 270747Z 15008KT 22/20 A2988 RMK A01 T02180195  RH  087%=      5-min Rain = 0
KCH1 270748Z 14008KT 22/20 A2988 RMK A01 T02180195  RH  087%=      5-min Rain = 0
KCH1 270749Z 15006KT 22/20 A2988 RMK A01 T02190195  RH  087%=      5-min Rain = 0
KCH1 270750Z 15005KT 22/20 A2988 RMK A01 T02180195  RH  087%=      5-min Rain = 0
KCH1 270751Z 15008KT 22/20 A2988 RMK A01 T02180195  RH  087%=      5-min Rain = 0
KCH1 270752Z 14009KT 22/20 A2988 RMK A01 T02170195  RH  087%=      5-min Rain = 0
KCH1 270753Z 14008KT 22/20 A2988 RMK A01 T02180195  RH  087%=      5-min Rain = 0
KCH1 270754Z 14008KT 22/20 A2988 RMK A01 T02180195  RH  087%=      5-min Rain = 0
KCH1 270755Z 14009KT 22/20 A2988 RMK A01 T02170195  RH  087%=      5-min Rain = 0
KCH1 270756Z 15008KT 22/20 A2988 RMK A01 T02170195  RH  088%=      5-min Rain = 0
KCH1 270757Z 15008KT 22/20 A2988 RMK A01 T02170195  RH  088%=      5-min Rain = 0
KCH1 270758Z 15009KT 22/20 A2988 RMK A01 T02160195  RH  088%=      5-min Rain = 0
KCH1 270759Z 15008KT 22/20 A2988 RMK A01 T02170195  RH  088%=      5-min Rain = 0
KCH1 270800Z 15010KT 22/20 A2988 RMK A01 T02170195  RH  088%=      5-min Rain = 0
KCH1 270801Z 15008KT 22/20 A2988 RMK A01 T02170195  RH  087%=      5-min Rain = 0
KCH1 270802Z 16010KT 22/20 A2988 RMK A01 T02170195  RH  087%=      5-min Rain = 0
KCH1 270803Z 15009KT 22/20 A2988 RMK A01 T02170195  RH  087%=      5-min Rain = 0
KCH1 270804Z 15009KT 22/20 A2988 RMK A01 T02170195  RH  087%=      5-min Rain = 0
KCH1 270805Z 16008KT 22/20 A2988 RMK A01 T02180196  RH  087%=      5-min Rain = 0
KCH1 270806Z 15008KT 22/20 A2988 RMK A01 T02170195  RH  087%=      5-min Rain = 0
KCH1 270807Z 16009KT 22/20 A2988 RMK A01 T02170196  RH  087%=      5-min Rain = 0
KCH1 270808Z 15009KT 22/20 A2988 RMK A01 T02170196  RH  087%=      5-min Rain = 0
KCH1 270809Z 15008KT 22/20 A2988 RMK A01 T02170195  RH  087%=      5-min Rain = 0
KCH1 270810Z 15008KT 22/20 A2988 RMK A01 T02170195  RH  087%=      5-min Rain = 0
KCH1 270811Z 15008KT 22/20 A2988 RMK A01 T02170195  RH  088%=      5-min Rain = 0
KCH1 270812Z 15009KT 22/20 A2988 RMK A01 T02160195  RH  088%=      5-min Rain = 0
KCH1 270813Z 15008KT 22/20 A2988 RMK A01 T02160195  RH  088%=      5-min Rain = 0
KCH1 270814Z 15009KT 22/20 A2987 RMK A01 T02160195  RH  088%=      5-min Rain = 0
KCH1 270815Z 15008KT 22/20 A2987 RMK A01 T02160195  RH  088%=      5-min Rain = 0
KCH1 270816Z 15007KT 22/20 A2987 RMK A01 T02160195  RH  088%=      5-min Rain = 0
KCH1 270817Z 14008KT 22/20 A2987 RMK A01 T02160196  RH  088%=      5-min Rain = 0
KCH1 270818Z 14008KT 22/20 A2987 RMK A01 T02150195  RH  088%=      5-min Rain = 0
KCH1 270819Z 14008KT 22/20 A2987 RMK A01 T02150195  RH  088%=      5-min Rain = 0
KCH1 270820Z 14006KT 22/20 A2987 RMK A01 T02150195  RH  088%=      5-min Rain = 0
KCH1 270821Z 15006KT 22/20 A2987 RMK A01 T02150195  RH  089%=      5-min Rain = 0
KCH1 270822Z 15008KT 22/20 A2987 RMK A01 T02150195  RH  089%=      5-min Rain = 0
KCH1 270823Z 14006KT 22/20 A2987 RMK A01 T02150195  RH  089%=      5-min Rain = 0
KCH1 270824Z 14005KT 22/20 A2987 RMK A01 T02150195  RH  088%=      5-min Rain = 0
KCH1 270825Z 15006KT 22/20 A2987 RMK A01 T02150195  RH  089%=      5-min Rain = 0
KCH1 270826Z 15008KT 21/20 A2987 RMK A01 T02140195  RH  089%=      5-min Rain = 0
KCH1 270827Z 14007KT 21/20 A2987 RMK A01 T02140195  RH  089%=      5-min Rain = 0
KCH1 270828Z 14007KT 21/20 A2987 RMK A01 T02140195  RH  089%=      5-min Rain = 0
KCH1 270829Z 14009KT 21/20 A2987 RMK A01 T02130195  RH  089%=      5-min Rain = 0
KCH1 270830Z 14008KT 21/20 A2987 RMK A01 T02130195  RH  089%=      5-min Rain = 0
KCH1 270831Z 14007KT 21/20 A2987 RMK A01 T02130195  RH  089%=      5-min Rain = 0
KCH1 270832Z 14008KT 21/20 A2987 RMK A01 T02130195  RH  089%=      5-min Rain = 0
KCH1 270833Z 14008KT 21/20 A2987 RMK A01 T02130195  RH  089%=      5-min Rain = 0
KCH1 270834Z 14008KT 21/20 A2987 RMK A01 T02130195  RH  089%=      5-min Rain = 0
KCH1 270835Z 15008KT 21/20 A2987 RMK A01 T02130195  RH  089%=      5-min Rain = 0
KCH1 270836Z 14007KT 21/20 A2987 RMK A01 T02130195  RH  089%=      5-min Rain = 0
KCH1 270837Z 14006KT 21/19 A2987 RMK A01 T02130194  RH  089%=      5-min Rain = 0
KCH1 270838Z 14007KT 21/20 A2987 RMK A01 T02130195  RH  089%=      5-min Rain = 0
KCH1 270839Z 15008KT 21/20 A2987 RMK A01 T02130195  RH  089%=      5-min Rain = 0
KCH1 270840Z 14006KT 21/19 A2987 RMK A01 T02130194  RH  089%=      5-min Rain = 0
KCH1 270841Z 14007KT 21/19 A2987 RMK A01 T02130194  RH  089%=      5-min Rain = 0
KCH1 270842Z 15007KT 21/20 A2987 RMK A01 T02130195  RH  089%=      5-min Rain = 0
KCH1 270843Z 15006KT 21/19 A2987 RMK A01 T02120194  RH  090%=      5-min Rain = 0
KCH1 270844Z 14005KT 21/19 A2987 RMK A01 T02120194  RH  090%=      5-min Rain = 0
KCH1 270845Z 14005KT 21/19 A2987 RMK A01 T02110194  RH  090%=      5-min Rain = 0
KCH1 270846Z 14005KT 21/19 A2987 RMK A01 T02110194  RH  090%=      5-min Rain = 0
KCH1 270847Z 14005KT 21/19 A2987 RMK A01 T02110194  RH  090%=      5-min Rain = 0
KCH1 270848Z 14004KT 21/19 A2987 RMK A01 T02100194  RH  090%=      5-min Rain = 0
KCH1 270849Z 14007KT 21/19 A2987 RMK A01 T02100194  RH  091%=      5-min Rain = 0
KCH1 270850Z 14007KT 21/19 A2987 RMK A01 T02100194  RH  091%=      5-min Rain = 0
KCH1 270851Z 14006KT 21/19 A2987 RMK A01 T02100194  RH  091%=      5-min Rain = 0
KCH1 270852Z 14005KT 21/20 A2987 RMK A01 T02100195  RH  091%=      5-min Rain = 0
KCH1 270853Z 14007KT 21/19 A2987 RMK A01 T02100194  RH  091%=      5-min Rain = 0
KCH1 270854Z 14007KT 21/19 A2987 RMK A01 T02100194  RH  091%=      5-min Rain = 0
KCH1 270855Z 14008KT 21/19 A2987 RMK A01 T02100194  RH  091%=      5-min Rain = 0
KCH1 270856Z 15006KT 21/19 A2987 RMK A01 T02100194  RH  090%=      5-min Rain = 0
KCH1 270857Z 14007KT 21/19 A2988 RMK A01 T02100194  RH  090%=      5-min Rain = 0
KCH1 270858Z 15009KT 21/19 A2988 RMK A01 T02100194  RH  090%=      5-min Rain = 0
KCH1 270859Z 15008KT 21/19 A2988 RMK A01 T02100194  RH  090%=      5-min Rain = 0
KCH1 270900Z 15007KT 21/19 A2988 RMK A01 T02100194  RH  090%=      5-min Rain = 0
KCH1 270901Z 14007KT 21/19 A2988 RMK A01 T02100194  RH  090%=      5-min Rain = 0
KCH1 270902Z 14006KT 21/19 A2988 RMK A01 T02110194  RH  090%=      5-min Rain = 0
KCH1 270903Z 14007KT 21/19 A2988 RMK A01 T02110194  RH  090%=      5-min Rain = 0
KCH1 270904Z 14008KT 21/19 A2988 RMK A01 T02110194  RH  090%=      5-min Rain = 0
KCH1 270905Z 14007KT 21/19 A2988 RMK A01 T02100194  RH  090%=      5-min Rain = 0
KCH1 270906Z 14007KT 21/19 A2988 RMK A01 T02100194  RH  091%=      5-min Rain = 0
KCH1 270907Z 14008KT 21/19 A2988 RMK A01 T02090194  RH  091%=      5-min Rain = 0
KCH1 270908Z 14008G13KT 21/19 A2988 RMK A01 T02090194  RH  091%=      5-min Rain = 0
KCH1 270909Z 14009KT 21/19 A2988 RMK A01 T02090193  RH  090%=      5-min Rain = 0
KCH1 270910Z 14006KT 21/19 A2988 RMK A01 T02100194  RH  090%=      5-min Rain = 0
KCH1 270911Z 14007KT 21/19 A2988 RMK A01 T02100194  RH  090%=      5-min Rain = 0
KCH1 270912Z 14008KT 21/19 A2988 RMK A01 T02110194  RH  090%=      5-min Rain = 0
KCH1 270913Z 14007KT 21/19 A2988 RMK A01 T02100194  RH  090%=      5-min Rain = 0
KCH1 270914Z 14007KT 21/19 A2988 RMK A01 T02100194  RH  090%=      5-min Rain = 0
KCH1 270915Z 14009KT 21/19 A2988 RMK A01 T02100193  RH  090%=      5-min Rain = 0
KCH1 270916Z 14007KT 21/19 A2988 RMK A01 T02100193  RH  090%=      5-min Rain = 0
KCH1 270917Z 15006KT 21/19 A2988 RMK A01 T02110193  RH  090%=      5-min Rain = 0
KCH1 270918Z 15008KT 21/19 A2988 RMK A01 T02110194  RH  090%=      5-min Rain = 0
KCH1 270919Z 13008KT 21/19 A2988 RMK A01 T02110193  RH  090%=      5-min Rain = 0
KCH1 270920Z 15008KT 21/19 A2988 RMK A01 T02110193  RH  090%=      5-min Rain = 0
KCH1 270921Z 14006KT 21/19 A2988 RMK A01 T02110193  RH  089%=      5-min Rain = 0
KCH1 270922Z 14007KT 21/19 A2988 RMK A01 T02110193  RH  089%=      5-min Rain = 0
KCH1 270923Z 14007KT 21/19 A2988 RMK A01 T02110193  RH  089%=      5-min Rain = 0
KCH1 270924Z 14008KT 21/19 A2988 RMK A01 T02110193  RH  089%=      5-min Rain = 0
KCH1 270925Z 15008KT 21/19 A2988 RMK A01 T02110193  RH  089%=      5-min Rain = 0
KCH1 270926Z 14008KT 21/19 A2988 RMK A01 T02120193  RH  089%=      5-min Rain = 0
KCH1 270927Z 14006KT 21/19 A2988 RMK A01 T02120193  RH  089%=      5-min Rain = 0
KCH1 270928Z 14008KT 21/19 A2988 RMK A01 T02120193  RH  089%=      5-min Rain = 0
KCH1 270929Z 14008KT 21/19 A2988 RMK A01 T02120193  RH  089%=      5-min Rain = 0
KCH1 270930Z 14007KT 21/19 A2988 RMK A01 T02120193  RH  089%=      5-min Rain = 0
KCH1 270931Z 14007KT 21/19 A2988 RMK A01 T02110193  RH  089%=      5-min Rain = 0
KCH1 270932Z 14008KT 21/19 A2988 RMK A01 T02110193  RH  089%=      5-min Rain = 0
KCH1 270933Z 14006KT 21/19 A2988 RMK A01 T02110193  RH  089%=      5-min Rain = 0
KCH1 270934Z 14009KT 21/19 A2988 RMK A01 T02110193  RH  089%=      5-min Rain = 0
KCH1 270935Z 15007KT 21/19 A2988 RMK A01 T02110193  RH  089%=      5-min Rain = 0
KCH1 270936Z 14009KT 21/19 A2988 RMK A01 T02110193  RH  089%=      5-min Rain = 0
KCH1 270937Z 14009KT 21/19 A2988 RMK A01 T02110193  RH  089%=      5-min Rain = 0
KCH1 270938Z 15009KT 21/19 A2988 RMK A01 T02110192  RH  089%=      5-min Rain = 0
KCH1 270939Z 15009KT 21/19 A2988 RMK A01 T02110192  RH  089%=      5-min Rain = 0
KCH1 270940Z 16009KT 21/19 A2988 RMK A01 T02120192  RH  089%=      5-min Rain = 0
KCH1 270941Z 15011KT 21/19 A2988 RMK A01 T02120192  RH  088%=      5-min Rain = 0
KCH1 270942Z 15010KT 21/19 A2988 RMK A01 T02120191  RH  088%=      5-min Rain = 0
KCH1 270943Z 16010KT 21/19 A2988 RMK A01 T02120192  RH  088%=      5-min Rain = 0
KCH1 270944Z 15011KT 21/19 A2988 RMK A01 T02120191  RH  088%=      5-min Rain = 0
KCH1 270945Z 16008KT 21/19 A2988 RMK A01 T02120191  RH  088%=      5-min Rain = 0
KCH1 270946Z 15008KT 21/19 A2988 RMK A01 T02120191  RH  088%=      5-min Rain = 0
KCH1 270947Z 15008KT 21/19 A2988 RMK A01 T02120192  RH  088%=      5-min Rain = 0
KCH1 270948Z 15010KT 21/19 A2988 RMK A01 T02120192  RH  088%=      5-min Rain = 0
KCH1 270949Z 14009KT 21/19 A2988 RMK A01 T02120191  RH  088%=      5-min Rain = 0
KCH1 270950Z 16007KT 21/19 A2988 RMK A01 T02120192  RH  088%=      5-min Rain = 0
KCH1 270951Z 15011KT 21/19 A2988 RMK A01 T02120192  RH  088%=      5-min Rain = 0
KCH1 270952Z 16009KT 21/19 A2988 RMK A01 T02120191  RH  088%=      5-min Rain = 0
KCH1 270953Z 15008KT 21/19 A2988 RMK A01 T02120191  RH  088%=      5-min Rain = 0
KCH1 270954Z 15007KT 21/19 A2988 RMK A01 T02120192  RH  088%=      5-min Rain = 0
KCH1 270955Z 15009KT 21/19 A2988 RMK A01 T02120192  RH  089%=      5-min Rain = 0
KCH1 270956Z 16009KT 21/19 A2988 RMK A01 T02110192  RH  089%=      5-min Rain = 0
KCH1 270957Z 15008KT 21/19 A2988 RMK A01 T02110192  RH  089%=      5-min Rain = 0
KCH1 270958Z 15009KT 21/19 A2988 RMK A01 T02110192  RH  089%=      5-min Rain = 0
KCH1 270959Z 15010KT 21/19 A2988 RMK A01 T02110192  RH  089%=      5-min Rain = 0
KCH1 271000Z 15010KT 21/19 A2988 RMK A01 T02110191  RH  088%=      5-min Rain = 0
KCH1 271001Z 15010KT 21/19 A2988 RMK A01 T02110191  RH  088%=      5-min Rain = 0
KCH1 271002Z 16009KT 21/19 A2989 RMK A01 T02110191  RH  088%=      5-min Rain = 0
KCH1 271003Z 15011KT 21/19 A2988 RMK A01 T02110191  RH  088%=      5-min Rain = 0
KCH1 271004Z 15009KT 21/19 A2988 RMK A01 T02110191  RH  088%=      5-min Rain = 0
KCH1 271005Z 15010KT 21/19 A2988 RMK A01 T02120191  RH  088%=      5-min Rain = 0
KCH1 271006Z 15010KT 21/19 A2988 RMK A01 T02110190  RH  088%=      5-min Rain = 0
KCH1 271007Z 16009KT 21/19 A2989 RMK A01 T02110190  RH  088%=      5-min Rain = 0
KCH1 271008Z 15009KT 21/19 A2989 RMK A01 T02110190  RH  088%=      5-min Rain = 0
KCH1 271009Z 15008KT 21/19 A2989 RMK A01 T02120190  RH  088%=      5-min Rain = 0
KCH1 271010Z 15010KT 21/19 A2989 RMK A01 T02110190  RH  088%=      5-min Rain = 0
KCH1 271011Z 15010KT 21/19 A2989 RMK A01 T02110189  RH  087%=      5-min Rain = 0
KCH1 271012Z 15009KT 21/19 A2989 RMK A01 T02110189  RH  087%=      5-min Rain = 0
KCH1 271013Z 15011KT 21/19 A2989 RMK A01 T02110189  RH  087%=      5-min Rain = 0
KCH1 271014Z 15008KT 21/19 A2989 RMK A01 T02120190  RH  087%=      5-min Rain = 0
KCH1 271015Z 15008KT 21/19 A2989 RMK A01 T02110190  RH  087%=      5-min Rain = 0
KCH1 271016Z 15008KT 21/19 A2989 RMK A01 T02110190  RH  087%=      5-min Rain = 0
KCH1 271017Z 15010KT 21/19 A2989 RMK A01 T02110190  RH  087%=      5-min Rain = 0
KCH1 271018Z 14008KT 21/19 A2989 RMK A01 T02110190  RH  087%=      5-min Rain = 0
KCH1 271019Z 14007KT 21/19 A2989 RMK A01 T02110190  RH  088%=      5-min Rain = 0
KCH1 271020Z 14008KT 21/19 A2989 RMK A01 T02110190  RH  088%=      5-min Rain = 0
KCH1 271021Z 14006KT 21/19 A2989 RMK A01 T02110190  RH  088%=      5-min Rain = 0
KCH1 271022Z 14008KT 21/19 A2989 RMK A01 T02110190  RH  088%=      5-min Rain = 0
KCH1 271023Z 13007KT 21/19 A299 RMK A01 T02100189  RH  088%=      5-min Rain = 0
KCH1 271024Z 13005KT 21/19 A299 RMK A01 T02100189  RH  087%=      5-min Rain = 0
KCH1 271025Z 14005KT 21/19 A299 RMK A01 T02110189  RH  088%=      5-min Rain = 0
KCH1 271026Z 14004KT 21/19 A2991 RMK A01 T02110189  RH  088%=      5-min Rain = 0
KCH1 271027Z 16004KT 21/19 A2991 RMK A01 T02100189  RH  088%=      5-min Rain = 0
KCH1 271028Z 18004KT 21/19 A2992 RMK A01 T02100189  RH  088%=      5-min Rain = 0
KCH1 271029Z 27001KT 21/19 A2992 RMK A01 T02100189  RH  087%=      5-min Rain = 0
KCH1 271030Z 30002KT 21/19 A2992 RMK A01 T02110189  RH  087%=      5-min Rain = 0
KCH1 271031Z 31001KT 21/19 A2992 RMK A01 T02100189  RH  088%=      5-min Rain = 0
KCH1 271032Z 26001KT 21/19 A2993 RMK A01 T02100189  RH  088%=      5-min Rain = 0
KCH1 271033Z 17002KT 21/19 A2993 RMK A01 T02110189  RH  088%=      5-min Rain = 0
KCH1 271034Z 15003KT 21/19 A2992 RMK A01 T02100189  RH  087%=      5-min Rain = 0
KCH1 271035Z 16003KT 21/19 A2992 RMK A01 T02110188  RH  087%=      5-min Rain = 0
KCH1 271036Z 16004KT 21/19 A2992 RMK A01 T02110187  RH  086%=      5-min Rain = 0
KCH1 271037Z 16005KT 21/19 A2991 RMK A01 T02110188  RH  087%=      5-min Rain = 0
KCH1 271038Z 14005KT 21/19 A2991 RMK A01 T02110188  RH  087%=      5-min Rain = 0
KCH1 271039Z 15007KT 21/19 A2991 RMK A01 T02110189  RH  087%=      5-min Rain = 0
KCH1 271040Z 16007KT 21/19 A2991 RMK A01 T02100189  RH  087%=      5-min Rain = 0
KCH1 271041Z 16006KT 21/19 A2991 RMK A01 T02100188  RH  087%=      5-min Rain = 0
KCH1 271042Z 15008KT 21/19 A2991 RMK A01 T02100188  RH  087%=      5-min Rain = 0
KCH1 271043Z 15008KT 21/19 A2991 RMK A01 T02100187  RH  087%=      5-min Rain = 0
KCH1 271044Z 16004KT 21/19 A2991 RMK A01 T02100187  RH  086%=      5-min Rain = 0
KCH1 271045Z 15005KT 21/19 A2992 RMK A01 T02100187  RH  087%=      5-min Rain = 0
KCH1 271046Z 15005KT 21/19 A2992 RMK A01 T02110187  RH  086%=      5-min Rain = 0
KCH1 271047Z 17002KT 21/19 A2992 RMK A01 T02110186  RH  086%=      5-min Rain = 0
KCH1 271048Z 16006KT 21/19 A2992 RMK A01 T02110186  RH  086%=      5-min Rain = 0
KCH1 271049Z 15005KT 21/19 A2993 RMK A01 T02110185  RH  085%=      5-min Rain = 0
KCH1 271050Z 16004KT 21/19 A2993 RMK A01 T02110185  RH  085%=      5-min Rain = 0
KCH1 271051Z 15004KT 21/19 A2993 RMK A01 T02110187  RH  086%=      5-min Rain = 0
KCH1 271052Z 16004KT 21/19 A2993 RMK A01 T02110187  RH  086%=      5-min Rain = 0
KCH1 271053Z 16006KT 21/19 A2993 RMK A01 T02110187  RH  086%=      5-min Rain = 0
KCH1 271054Z 15007KT 21/19 A2992 RMK A01 T02110186  RH  086%=      5-min Rain = 0
KCH1 271055Z 15006KT 21/19 A2992 RMK A01 T02100185  RH  085%=      5-min Rain = 0
KCH1 271056Z 15006KT 21/19 A2992 RMK A01 T02100186  RH  086%=      5-min Rain = 0
KCH1 271057Z 15008KT 21/19 A2992 RMK A01 T02100186  RH  086%=      5-min Rain = 0
KCH1 271058Z 15009KT 21/19 A2992 RMK A01 T02100185  RH  086%=      5-min Rain = 0
KCH1 271059Z 16008KT 21/19 A2992 RMK A01 T02100185  RH  086%=      5-min Rain = 0
KCH1 271100Z 15007KT 21/19 A2992 RMK A01 T02100185  RH  086%=      5-min Rain = 0
KCH1 271101Z 15005KT 21/19 A2992 RMK A01 T02100185  RH  086%=      5-min Rain = 0
KCH1 271102Z 15007KT 21/19 A2992 RMK A01 T02100186  RH  086%=      5-min Rain = 0
KCH1 271103Z 15007KT 21/19 A2992 RMK A01 T02090185  RH  086%=      5-min Rain = 0
KCH1 271104Z 15006KT 21/19 A2993 RMK A01 T02100185  RH  086%=      5-min Rain = 0
KCH1 271105Z 15005KT 21/19 A2993 RMK A01 T02100186  RH  086%=      5-min Rain = 0
KCH1 271106Z 16005KT 21/19 A2993 RMK A01 T02090185  RH  086%=      5-min Rain = 0
KCH1 271107Z 16006KT 21/19 A2993 RMK A01 T02090185  RH  086%=      5-min Rain = 0
KCH1 271108Z 16006KT 21/19 A2993 RMK A01 T02090185  RH  086%=      5-min Rain = 0
KCH1 271109Z 16006KT 21/19 A2993 RMK A01 T02090185  RH  086%=      5-min Rain = 0
KCH1 271110Z 16007KT 21/19 A2993 RMK A01 T02090185  RH  086%=      5-min Rain = 0
KCH1 271111Z 15007KT 21/19 A2993 RMK A01 T02090185  RH  086%=      5-min Rain = 0
KCH1 271112Z 15008KT 21/19 A2993 RMK A01 T02090185  RH  086%=      5-min Rain = 0
KCH1 271113Z 15007KT 21/19 A2993 RMK A01 T02090185  RH  086%=      5-min Rain = 0
KCH1 271114Z 15007KT 21/19 A2993 RMK A01 T02090185  RH  086%=      5-min Rain = 0
KCH1 271115Z 15006KT 21/19 A2993 RMK A01 T02090185  RH  086%=      5-min Rain = 0
KCH1 271116Z 15007KT 21/19 A2993 RMK A01 T02080185  RH  086%=      5-min Rain = 0
KCH1 271117Z 15008KT 21/19 A2993 RMK A01 T02080185  RH  086%=      5-min Rain = 0
KCH1 271118Z 15008KT 21/18 A2993 RMK A01 T02080184  RH  086%=      5-min Rain = 0
KCH1 271119Z 15007KT 21/18 A2993 RMK A01 T02080184  RH  086%=      5-min Rain = 0
KCH1 271120Z 14006KT 21/19 A2993 RMK A01 T02080185  RH  086%=      5-min Rain = 0
KCH1 271121Z 15006KT 21/19 A2993 RMK A01 T02080185  RH  087%=      5-min Rain = 0
KCH1 271122Z 15006KT 21/19 A2993 RMK A01 T02080185  RH  087%=      5-min Rain = 0
KCH1 271123Z 15007KT 21/19 A2993 RMK A01 T02070185  RH  087%=      5-min Rain = 0
KCH1 271124Z 15007KT 21/18 A2993 RMK A01 T02070184  RH  087%=      5-min Rain = 0
KCH1 271125Z 15006KT 21/18 A2993 RMK A01 T02070184  RH  086%=      5-min Rain = 0
KCH1 271126Z 15006KT 21/18 A2993 RMK A01 T02070184  RH  087%=      5-min Rain = 0
KCH1 271127Z 15007KT 21/18 A2993 RMK A01 T02070184  RH  086%=      5-min Rain = 0
KCH1 271128Z 15009KT 21/18 A2993 RMK A01 T02070184  RH  086%=      5-min Rain = 0
KCH1 271129Z 15007KT 21/18 A2993 RMK A01 T02070183  RH  086%=      5-min Rain = 0
KCH1 271130Z 16006KT 21/18 A2993 RMK A01 T02070183  RH  086%=      5-min Rain = 0
KCH1 271131Z 16006KT 21/18 A2993 RMK A01 T02070183  RH  086%=      5-min Rain = 0
KCH1 271132Z 16007KT 21/18 A2993 RMK A01 T02070183  RH  086%=      5-min Rain = 0
KCH1 271133Z 15008KT 21/18 A2993 RMK A01 T02070183  RH  086%=      5-min Rain = 0
KCH1 271134Z 16009KT 21/18 A2993 RMK A01 T02070183  RH  086%=      5-min Rain = 0
KCH1 271135Z 15007KT 21/18 A2993 RMK A01 T02070182  RH  086%=      5-min Rain = 0
KCH1 271136Z 16007KT 21/18 A2993 RMK A01 T02070182  RH  086%=      5-min Rain = 0
KCH1 271137Z 15006KT 21/18 A2993 RMK A01 T02070182  RH  086%=      5-min Rain = 0
KCH1 271138Z 15004KT 21/18 A2993 RMK A01 T02070182  RH  086%=      5-min Rain = 0
KCH1 271139Z 16006KT 21/18 A2993 RMK A01 T02070182  RH  086%=      5-min Rain = 0
KCH1 271140Z 15005KT 21/18 A2993 RMK A01 T02070183  RH  086%=      5-min Rain = 0
KCH1 271141Z 15005KT 21/18 A2993 RMK A01 T02070183  RH  086%=      5-min Rain = 0
KCH1 271142Z 15007KT 21/18 A2993 RMK A01 T02060182  RH  086%=      5-min Rain = 0
KCH1 271143Z 15006KT 21/18 A2993 RMK A01 T02060182  RH  086%=      5-min Rain = 0
KCH1 271144Z 15007KT 21/18 A2993 RMK A01 T02060182  RH  086%=      5-min Rain = 0
KCH1 271145Z 15007KT 21/18 A2993 RMK A01 T02060182  RH  086%=      5-min Rain = 0
KCH1 271146Z 15007KT 21/18 A2993 RMK A01 T02060182  RH  086%=      5-min Rain = 0
KCH1 271147Z 16007KT 21/18 A2993 RMK A01 T02060182  RH  086%=      5-min Rain = 0
KCH1 271148Z 16007KT 21/18 A2993 RMK A01 T02060181  RH  086%=      5-min Rain = 0
KCH1 271149Z 14007KT 21/18 A2993 RMK A01 T02060181  RH  086%=      5-min Rain = 0
KCH1 271150Z 15007KT 21/18 A2993 RMK A01 T02060182  RH  086%=      5-min Rain = 0
KCH1 271151Z 15007KT 21/18 A2993 RMK A01 T02060182  RH  086%=      5-min Rain = 0
KCH1 271152Z 15007KT 21/18 A2993 RMK A01 T02060181  RH  086%=      5-min Rain = 0
KCH1 271153Z 15009KT 21/18 A2993 RMK A01 T02050181  RH  086%=      5-min Rain = 0
KCH1 271154Z 15007KT 21/18 A2993 RMK A01 T02050181  RH  086%=      5-min Rain = 0
KCH1 271155Z 15008KT 21/18 A2993 RMK A01 T02050181  RH  086%=      5-min Rain = 0
KCH1 271156Z 15007KT 21/18 A2993 RMK A01 T02050181  RH  086%=      5-min Rain = 0
KCH1 271157Z 15007KT 21/18 A2993 RMK A01 T02060181  RH  086%=      5-min Rain = 0
KCH1 271158Z 14006KT 21/18 A2993 RMK A01 T02060181  RH  086%=      5-min Rain = 0
KCH1 271159Z 15005KT 21/18 A2993 RMK A01 T02050181  RH  086%=      5-min Rain = 0
KCH1 271200Z 15005KT 21/18 A2993 RMK A01 T02050181  RH  086%=      5-min Rain = 0
KCH1 271201Z 15007KT 21/18 A2993 RMK A01 T02050182  RH  086%=      5-min Rain = 0
KCH1 271202Z 15007KT 21/18 A2993 RMK A01 T02050181  RH  086%=      5-min Rain = 0
KCH1 271203Z 14007KT 20/18 A2993 RMK A01 T02040181  RH  087%=      5-min Rain = 0
KCH1 271204Z 14007KT 21/18 A2993 RMK A01 T02050181  RH  086%=      5-min Rain = 0
KCH1 271205Z 15008KT 21/18 A2993 RMK A01 T02050182  RH  087%=      5-min Rain = 0
KCH1 271206Z 15010KT 20/18 A2993 RMK A01 T02040181  RH  086%=      5-min Rain = 0
KCH1 271207Z 15006KT 20/18 A2993 RMK A01 T02040181  RH  086%=      5-min Rain = 0
KCH1 271208Z 15007KT 20/18 A2993 RMK A01 T02040181  RH  086%=      5-min Rain = 0
KCH1 271209Z 15007KT 20/18 A2993 RMK A01 T02040180  RH  086%=      5-min Rain = 0
KCH1 271210Z 15008KT 21/18 A2993 RMK A01 T02050181  RH  086%=      5-min Rain = 0
KCH1 271211Z 15007KT 21/18 A2993 RMK A01 T02050181  RH  086%=      5-min Rain = 0
KCH1 271212Z 15008KT 21/18 A2993 RMK A01 T02050181  RH  086%=      5-min Rain = 0
KCH1 271213Z 15007KT 21/18 A2993 RMK A01 T02050181  RH  086%=      5-min Rain = 0
KCH1 271214Z 16007KT 20/18 A2993 RMK A01 T02040181  RH  086%=      5-min Rain = 0
KCH1 271215Z 15006KT 20/18 A2993 RMK A01 T02040181  RH  086%=      5-min Rain = 0
KCH1 271216Z 16007KT 21/18 A2993 RMK A01 T02050181  RH  086%=      5-min Rain = 0
KCH1 271217Z 15008KT 21/18 A2993 RMK A01 T02050181  RH  086%=      5-min Rain = 0
KCH1 271218Z 16007KT 20/18 A2993 RMK A01 T02040181  RH  086%=      5-min Rain = 0
KCH1 271219Z 16007KT 20/18 A2993 RMK A01 T02040181  RH  086%=      5-min Rain = 0
KCH1 271220Z 17008KT 20/18 A2993 RMK A01 T02040181  RH  086%=      5-min Rain = 0
KCH1 271221Z 16007KT 21/18 A2993 RMK A01 T02050181  RH  086%=      5-min Rain = 0
KCH1 271222Z 16007KT 20/18 A2994 RMK A01 T02040181  RH  086%=      5-min Rain = 0
KCH1 271223Z 16007KT 21/18 A2993 RMK A01 T02050181  RH  086%=      5-min Rain = 0
KCH1 271224Z 16006KT 21/18 A2993 RMK A01 T02050181  RH  086%=      5-min Rain = 0
KCH1 271225Z 16006KT 21/18 A2993 RMK A01 T02050181  RH  086%=      5-min Rain = 0
KCH1 271226Z 16008KT 20/18 A2993 RMK A01 T02040181  RH  086%=      5-min Rain = 0
KCH1 271227Z 16009KT 20/18 A2993 RMK A01 T02040180  RH  086%=      5-min Rain = 0
KCH1 271228Z 16007KT 20/18 A2993 RMK A01 T02040180  RH  086%=      5-min Rain = 0
KCH1 271229Z 16008KT 20/18 A2993 RMK A01 T02040181  RH  086%=      5-min Rain = 0
KCH1 271230Z 16007KT 20/18 A2993 RMK A01 T02040180  RH  086%=      5-min Rain = 0
KCH1 271231Z 16008KT 20/18 A2993 RMK A01 T02040180  RH  086%=      5-min Rain = 0
KCH1 271232Z 17007KT 20/18 A2993 RMK A01 T02040180  RH  086%=      5-min Rain = 0
KCH1 271233Z 16006KT 20/18 A2993 RMK A01 T02040180  RH  086%=      5-min Rain = 0
KCH1 271234Z 16007KT 20/18 A2993 RMK A01 T02040180  RH  086%=      5-min Rain = 0
KCH1 271235Z 16007KT 20/18 A2993 RMK A01 T02040180  RH  086%=      5-min Rain = 0
KCH1 271236Z 16007KT 20/18 A2993 RMK A01 T02040180  RH  086%=      5-min Rain = 0
KCH1 271237Z 17007KT 20/18 A2993 RMK A01 T02040180  RH  086%=      5-min Rain = 0
KCH1 271238Z 16007KT 20/18 A2993 RMK A01 T02040180  RH  086%=      5-min Rain = 0
KCH1 271239Z 16006KT 20/18 A2993 RMK A01 T02040180  RH  086%=      5-min Rain = 0
KCH1 271240Z 16010KT 20/18 A2993 RMK A01 T02040180  RH  086%=      5-min Rain = 0
KCH1 271241Z 15010KT 21/18 A2993 RMK A01 T02050179  RH  085%=      5-min Rain = 0
KCH1 271242Z 16009KT 20/18 A2993 RMK A01 T02040179  RH  085%=      5-min Rain = 0
KCH1 271243Z 16007KT 21/18 A2993 RMK A01 T02050179  RH  085%=      5-min Rain = 0
KCH1 271244Z 15008KT 21/18 A2993 RMK A01 T02050179  RH  085%=      5-min Rain = 0
KCH1 271245Z 16008KT 20/18 A2993 RMK A01 T02040180  RH  086%=      5-min Rain = 0
KCH1 271246Z 15009KT 21/18 A2993 RMK A01 T02050179  RH  085%=      5-min Rain = 0
KCH1 271247Z 16008KT 20/18 A2993 RMK A01 T02040179  RH  085%=      5-min Rain = 0
KCH1 271248Z 15010KT 20/18 A2993 RMK A01 T02040179  RH  085%=      5-min Rain = 0
KCH1 271249Z 15009KT 20/18 A2993 RMK A01 T02040179  RH  085%=      5-min Rain = 0
KCH1 271250Z 15009KT 20/18 A2993 RMK A01 T02040179  RH  085%=      5-min Rain = 0
KCH1 271251Z 16012KT 20/18 A2993 RMK A01 T02040178  RH  085%=      5-min Rain = 0
KCH1 271252Z 16009KT 21/18 A2993 RMK A01 T02050178  RH  084%=      5-min Rain = 0
KCH1 271253Z 16011KT 21/18 A2993 RMK A01 T02060179  RH  084%=      5-min Rain = 0
KCH1 271254Z 15009KT 21/18 A2993 RMK A01 T02060178  RH  084%=      5-min Rain = 0
KCH1 271255Z 15009KT 21/18 A2993 RMK A01 T02060179  RH  084%=      5-min Rain = 0
KCH1 271256Z 15010KT 21/18 A2993 RMK A01 T02060178  RH  084%=      5-min Rain = 0
KCH1 271257Z 16010KT 21/18 A2993 RMK A01 T02070178  RH  084%=      5-min Rain = 0
KCH1 271258Z 15009KT 21/18 A2993 RMK A01 T02070178  RH  083%=      5-min Rain = 0
KCH1 271259Z 16010KT 21/18 A2993 RMK A01 T02080178  RH  083%=      5-min Rain = 0
KCH1 271300Z 16010KT 21/18 A2993 RMK A01 T02080178  RH  083%=      5-min Rain = 0
KCH1 271301Z 16010KT 21/18 A2993 RMK A01 T02090178  RH  083%=      5-min Rain = 0
KCH1 271302Z 16012KT 21/18 A2993 RMK A01 T02090177  RH  082%=      5-min Rain = 0
KCH1 271303Z 16011KT 21/18 A2993 RMK A01 T02090178  RH  082%=      5-min Rain = 0
KCH1 271304Z 16010KT 21/18 A2993 RMK A01 T02090178  RH  082%=      5-min Rain = 0
KCH1 271305Z 16009KT 21/18 A2993 RMK A01 T02100179  RH  082%=      5-min Rain = 0
KCH1 271306Z 16011KT 21/18 A2993 RMK A01 T02100178  RH  082%=      5-min Rain = 0
KCH1 271307Z 16010KT 21/18 A2993 RMK A01 T02100178  RH  082%=      5-min Rain = 0
KCH1 271308Z 16009KT 21/18 A2993 RMK A01 T02110178  RH  082%=      5-min Rain = 0
KCH1 271309Z 16010KT 21/18 A2992 RMK A01 T02110179  RH  082%=      5-min Rain = 0
KCH1 271310Z 16010KT 21/18 A2992 RMK A01 T02110178  RH  081%=      5-min Rain = 0
KCH1 271311Z 17009KT 21/18 A2992 RMK A01 T02110179  RH  082%=      5-min Rain = 0
KCH1 271312Z 17010KT 21/18 A2992 RMK A01 T02120178  RH  081%=      5-min Rain = 0
KCH1 271313Z 16009KT 21/18 A2992 RMK A01 T02120179  RH  081%=      5-min Rain = 0
KCH1 271314Z 16008KT 21/18 A2992 RMK A01 T02120179  RH  081%=      5-min Rain = 0
KCH1 271315Z 17011KT 21/18 A2992 RMK A01 T02130179  RH  081%=      5-min Rain = 0
KCH1 271316Z 16008KT 21/18 A2992 RMK A01 T02130179  RH  081%=      5-min Rain = 0
KCH1 271317Z 17008KT 21/18 A2992 RMK A01 T02130179  RH  081%=      5-min Rain = 0
KCH1 271318Z 17008KT 21/18 A2992 RMK A01 T02130179  RH  081%=      5-min Rain = 0
KCH1 271319Z 16008G13KT 21/18 A2992 RMK A01 T02130180  RH  081%=      5-min Rain = 0
KCH1 271320Z 17009KT 21/18 A2992 RMK A01 T02140180  RH  081%=      5-min Rain = 0
KCH1 271321Z 17009KT 21/18 A2992 RMK A01 T02140179  RH  080%=      5-min Rain = 0
KCH1 271322Z 17008KT 22/18 A2992 RMK A01 T02150180  RH  080%=      5-min Rain = 0
KCH1 271323Z 17008KT 22/18 A2992 RMK A01 T02150179  RH  080%=      5-min Rain = 0
KCH1 271324Z 17010KT 22/18 A2992 RMK A01 T02150178  RH  080%=      5-min Rain = 0
KCH1 271325Z 17012KT 22/18 A2992 RMK A01 T02150178  RH  079%=      5-min Rain = 0
KCH1 271326Z 16012KT 22/18 A2992 RMK A01 T02150178  RH  079%=      5-min Rain = 0
KCH1 271327Z 17013KT 22/18 A2992 RMK A01 T02150178  RH  079%=      5-min Rain = 0
KCH1 271328Z 16012KT 22/18 A2992 RMK A01 T02150177  RH  079%=      5-min Rain = 0
KCH1 271329Z 16012KT 22/18 A2992 RMK A01 T02150177  RH  079%=      5-min Rain = 0
KCH1 271330Z 16013KT 22/18 A2992 RMK A01 T02150177  RH  079%=      5-min Rain = 0
KCH1 271331Z 17014KT 22/18 A2992 RMK A01 T02150176  RH  078%=      5-min Rain = 0
KCH1 271332Z 17013KT 22/18 A2992 RMK A01 T02160176  RH  078%=      5-min Rain = 0
KCH1 271333Z 16010KT 22/18 A2992 RMK A01 T02150177  RH  079%=      5-min Rain = 0
KCH1 271334Z 16011KT 22/18 A2992 RMK A01 T02160177  RH  078%=      5-min Rain = 0
KCH1 271335Z 16012KT 22/18 A2992 RMK A01 T02170178  RH  078%=      5-min Rain = 0
KCH1 271336Z 16010KT 22/18 A2992 RMK A01 T02170178  RH  079%=      5-min Rain = 0
KCH1 271337Z 17010KT 22/18 A2992 RMK A01 T02180179  RH  078%=      5-min Rain = 0
KCH1 271338Z 16011G16KT 22/18 A2992 RMK A01 T02180178  RH  078%=      5-min Rain = 0
KCH1 271339Z 16015KT 22/18 A2992 RMK A01 T02190176  RH  077%=      5-min Rain = 0
KCH1 271340Z 16014KT 22/18 A2992 RMK A01 T02190176  RH  077%=      5-min Rain = 0
KCH1 271341Z 17010KT 22/18 A2992 RMK A01 T02180177  RH  077%=      5-min Rain = 0
KCH1 271342Z 16010G17KT 22/18 A2992 RMK A01 T02180177  RH  077%=      5-min Rain = 0
KCH1 271343Z 16013KT 22/18 A2992 RMK A01 T02190176  RH  077%=      5-min Rain = 0
KCH1 271344Z 17014KT 22/18 A2992 RMK A01 T02190175  RH  076%=      5-min Rain = 0
KCH1 271345Z 17014KT 22/17 A2992 RMK A01 T02190173  RH  075%=      5-min Rain = 0
KCH1 271346Z 16014KT 22/17 A2992 RMK A01 T02190174  RH  075%=      5-min Rain = 0
KCH1 271347Z 17017KT 22/17 A2992 RMK A01 T02200173  RH  075%=      5-min Rain = 0
KCH1 271348Z 17016KT 22/17 A2992 RMK A01 T02200172  RH  074%=      5-min Rain = 0
KCH1 271349Z 18013G18KT 22/17 A2992 RMK A01 T02200172  RH  074%=      5-min Rain = 0
KCH1 271350Z 17015G20KT 22/17 A2991 RMK A01 T02210172  RH  074%=      5-min Rain = 0
KCH1 271351Z 16016KT 22/17 A2991 RMK A01 T02210171  RH  073%=      5-min Rain = 0
KCH1 271352Z 16016KT 22/17 A2991 RMK A01 T02210171  RH  073%=      5-min Rain = 0
KCH1 271353Z 18013KT 22/17 A2991 RMK A01 T02210171  RH  073%=      5-min Rain = 0
KCH1 271354Z 17017G22KT 22/17 A2991 RMK A01 T02210171  RH  073%=      5-min Rain = 0
KCH1 271355Z 17016KT 22/17 A2991 RMK A01 T02210169  RH  072%=      5-min Rain = 0
KCH1 271356Z 18014G20KT 22/17 A2992 RMK A01 T02210171  RH  073%=      5-min Rain = 0
KCH1 271357Z 18013G18KT 22/17 A2992 RMK A01 T02210172  RH  074%=      5-min Rain = 0
KCH1 271358Z 18014KT 22/17 A2991 RMK A01 T02220172  RH  073%=      5-min Rain = 0
KCH1 271359Z 17013KT 22/17 A2991 RMK A01 T02230172  RH  073%=      5-min Rain = 0
KCH1 271400Z 16011KT 22/17 A2991 RMK A01 T02230172  RH  073%=      5-min Rain = 0
KCH1 271401Z 17010KT 22/18 A2991 RMK A01 T02240175  RH  074%=      5-min Rain = 0
KCH1 271402Z 18013G18KT 23/17 A2991 RMK A01 T02250171  RH  072%=      5-min Rain = 0
KCH1 271403Z 17014G20KT 23/17 A2991 RMK A01 T02250171  RH  071%=      5-min Rain = 0
KCH1 271404Z 18013G18KT 23/17 A2991 RMK A01 T02250170  RH  071%=      5-min Rain = 0
KCH1 271405Z 18016G22KT 23/17 A2991 RMK A01 T02250169  RH  071%=      5-min Rain = 0
KCH1 271406Z 18017KT 22/17 A2991 RMK A01 T02240168  RH  070%=      5-min Rain = 0
KCH1 271407Z 17012KT 22/17 A2991 RMK A01 T02240169  RH  071%=      5-min Rain = 0
KCH1 271408Z 17012KT 22/17 A2991 RMK A01 T02240172  RH  072%=      5-min Rain = 0
KCH1 271409Z 17017KT 23/17 A2991 RMK A01 T02250170  RH  071%=      5-min Rain = 0
KCH1 271410Z 17014G19KT 23/17 A2991 RMK A01 T02250170  RH  071%=      5-min Rain = 0
KCH1 271411Z 17015KT 23/17 A2991 RMK A01 T02250169  RH  070%=      5-min Rain = 0
KCH1 271412Z 18015KT 23/17 A2991 RMK A01 T02250170  RH  071%=      5-min Rain = 0
KCH1 271413Z 18015G21KT 23/17 A2991 RMK A01 T02250170  RH  071%=      5-min Rain = 0
KCH1 271414Z 18014KT 23/17 A2991 RMK A01 T02250169  RH  070%=      5-min Rain = 0
KCH1 271415Z 18011G18KT 23/17 A2991 RMK A01 T02250172  RH  072%=      5-min Rain = 0
KCH1 271416Z 18017KT 23/17 A2991 RMK A01 T02250170  RH  071%=      5-min Rain = 0
KCH1 271417Z 17014G20KT 23/17 A2991 RMK A01 T02250170  RH  071%=      5-min Rain = 0
KCH1 271418Z 17016G21KT 23/17 A2991 RMK A01 T02250171  RH  071%=      5-min Rain = 0
KCH1 271419Z 18012KT 23/17 A2991 RMK A01 T02250171  RH  071%=      5-min Rain = 0
KCH1 271420Z 17012G17KT 23/17 A2991 RMK A01 T02260172  RH  072%=      5-min Rain = 0
KCH1 271421Z 18014KT 23/17 A2992 RMK A01 T02260171  RH  071%=      5-min Rain = 0
KCH1 271422Z 17010KT 23/17 A2992 RMK A01 T02260171  RH  071%=      5-min Rain = 0
KCH1 271423Z 18011KT 23/17 A2992 RMK A01 T02270172  RH  071%=      5-min Rain = 0
KCH1 271424Z 18011KT 23/17 A2992 RMK A01 T02270173  RH  071%=      5-min Rain = 0
KCH1 271425Z 17012KT 23/17 A2992 RMK A01 T02270173  RH  071%=      5-min Rain = 0
KCH1 271426Z 18011KT 23/17 A2992 RMK A01 T02280173  RH  071%=      5-min Rain = 0
KCH1 271427Z 19009KT 23/17 A2992 RMK A01 T02280173  RH  071%=      5-min Rain = 0
KCH1 271428Z 19013KT 23/17 A2992 RMK A01 T02290174  RH  071%=      5-min Rain = 0
KCH1 271429Z 18010KT 23/17 A2992 RMK A01 T02300173  RH  071%=      5-min Rain = 0
KCH1 271430Z 18017KT 23/17 A2992 RMK A01 T02300172  RH  070%=      5-min Rain = 0
KCH1 271431Z 18012G18KT 23/17 A2992 RMK A01 T02300172  RH  070%=      5-min Rain = 0
KCH1 271432Z 18013G18KT 23/17 A2992 RMK A01 T02300173  RH  070%=      5-min Rain = 0
KCH1 271433Z 17014KT 23/17 A2992 RMK A01 T02300169  RH  069%=      5-min Rain = 0
KCH1 271434Z 18011G16KT 23/17 A2992 RMK A01 T02300171  RH  069%=      5-min Rain = 0
KCH1 271435Z 18011G17KT 23/17 A2992 RMK A01 T02300172  RH  070%=      5-min Rain = 0
KCH1 271436Z 18014KT 23/17 A2992 RMK A01 T02300171  RH  069%=      5-min Rain = 0
KCH1 271437Z 18017KT 23/17 A2992 RMK A01 T02310170  RH  069%=      5-min Rain = 0
KCH1 271438Z 18014G20KT 23/17 A2992 RMK A01 T02300170  RH  069%=      5-min Rain = 0
KCH1 271439Z 17013KT 23/17 A2992 RMK A01 T02300170  RH  069%=      5-min Rain = 0
KCH1 271440Z 18010KT 23/17 A2992 RMK A01 T02300171  RH  069%=      5-min Rain = 0
KCH1 271441Z 18009G14KT 23/17 A2992 RMK A01 T02320173  RH  069%=      5-min Rain = 0
KCH1 271442Z 19012KT 23/17 A2992 RMK A01 T02330172  RH  069%=      5-min Rain = 0
KCH1 271443Z 18014KT 23/17 A2992 RMK A01 T02340171  RH  068%=      5-min Rain = 0
KCH1 271444Z 18011G17KT 23/17 A2992 RMK A01 T02340173  RH  069%=      5-min Rain = 0
KCH1 271445Z 18013G18KT 23/17 A2992 RMK A01 T02340171  RH  068%=      5-min Rain = 0
KCH1 271446Z 18016KT 23/17 A2991 RMK A01 T02340169  RH  067%=      5-min Rain = 0
KCH1 271447Z 18016G22KT 23/17 A2991 RMK A01 T02340168  RH  067%=      5-min Rain = 0
KCH1 271448Z 18015KT 23/17 A2992 RMK A01 T02340169  RH  067%=      5-min Rain = 0
KCH1 271449Z 18014KT 23/17 A2991 RMK A01 T02340169  RH  067%=      5-min Rain = 0
KCH1 271450Z 17013G19KT 23/17 A2991 RMK A01 T02340170  RH  067%=      5-min Rain = 0
KCH1 271451Z 17014G19KT 23/17 A2991 RMK A01 T02340170  RH  067%=      5-min Rain = 0
KCH1 271452Z 17015KT 23/17 A2991 RMK A01 T02340169  RH  067%=      5-min Rain = 0
KCH1 271453Z 19013KT 24/17 A2991 RMK A01 T02350171  RH  067%=      5-min Rain = 0
KCH1 271454Z 18010KT 24/17 A2992 RMK A01 T02360173  RH  068%=      5-min Rain = 0
KCH1 271455Z 19010G15KT 24/18 A2992 RMK A01 T02380176  RH  068%=      5-min Rain = 0
KCH1 271456Z 18011KT 24/17 A2992 RMK A01 T02390174  RH  067%=      5-min Rain = 0
KCH1 271457Z 19014G21KT 24/17 A2992 RMK A01 T02390173  RH  066%=      5-min Rain = 0
KCH1 271458Z 17012G17KT 24/17 A2992 RMK A01 T02390171  RH  066%=      5-min Rain = 0
KCH1 271459Z 18012KT 24/17 A2991 RMK A01 T02380171  RH  066%=      5-min Rain = 0
KCH1 271500Z 18014KT 24/17 A2991 RMK A01 T02380172  RH  066%=      5-min Rain = 0
KCH1 271506Z 18014G19KT 24/17 A2992 RMK A01 T02380172  RH  067%=      5-min Rain = 0
KCH1 271507Z 17012G18KT 24/17 A2992 RMK A01 T02380173  RH  067%=      5-min Rain = 0
KCH1 271508Z 16013KT 24/18 A2992 RMK A01 T02380175  RH  068%=      5-min Rain = 0
KCH1 271509Z 17012G17KT 24/18 A2992 RMK A01 T02390175  RH  067%=      5-min Rain = 0
KCH1 271510Z 17014KT 24/17 A2992 RMK A01 T02400174  RH  067%=      5-min Rain = 0
KCH1 271511Z 17014G19KT 24/17 A2992 RMK A01 T02400174  RH  066%=      5-min Rain = 0
KCH1 271512Z 17013KT 24/17 A2992 RMK A01 T02400174  RH  066%=      5-min Rain = 0
KCH1 271513Z 17009G14KT 24/18 A2992 RMK A01 T02400176  RH  068%=      5-min Rain = 0
KCH1 271514Z 17012G18KT 24/18 A2992 RMK A01 T02410176  RH  067%=      5-min Rain = 0
KCH1 271515Z 17016G21KT 24/17 A2992 RMK A01 T02410174  RH  066%=      5-min Rain = 0
KCH1 271516Z 18013G19KT 24/17 A2992 RMK A01 T02410174  RH  066%=      5-min Rain = 0
KCH1 271517Z 18015G21KT 24/18 A2992 RMK A01 T02410176  RH  067%=      5-min Rain = 0
KCH1 271518Z 19015KT 24/17 A2992 RMK A01 T02410172  RH  065%=      5-min Rain = 0
KCH1 271519Z 18012KT 24/17 A2992 RMK A01 T02410174  RH  066%=      5-min Rain = 0
KCH1 271520Z 18014G19KT 24/17 A2992 RMK A01 T02410173  RH  066%=      5-min Rain = 0
KCH1 271521Z 19014KT 24/18 A2992 RMK A01 T02410175  RH  066%=      5-min Rain = 0
KCH1 271522Z 18018G23KT 24/17 A2992 RMK A01 T02410172  RH  065%=      5-min Rain = 0
KCH1 271523Z 20014KT 24/17 A2992 RMK A01 T02400172  RH  066%=      5-min Rain = 0
KCH1 271524Z 19012KT 24/17 A2992 RMK A01 T02400173  RH  066%=      5-min Rain = 0
KCH1 271525Z 19014KT 24/17 A2992 RMK A01 T02400174  RH  067%=      5-min Rain = 0
KCH1 271526Z 19012KT 24/17 A2992 RMK A01 T02400174  RH  067%=      5-min Rain = 0
KCH1 271527Z 20012KT 24/18 A2991 RMK A01 T02410175  RH  066%=      5-min Rain = 0
KCH1 271528Z 19008KT 24/18 A2992 RMK A01 T02420178  RH  067%=      5-min Rain = 0
KCH1 271529Z 19009KT 25/18 A2992 RMK A01 T02450178  RH  066%=      5-min Rain = 0
KCH1 271530Z 18008KT 25/18 A2992 RMK A01 T02450180  RH  067%=      5-min Rain = 0
KCH1 271531Z 19009KT 25/18 A2992 RMK A01 T02470180  RH  067%=      5-min Rain = 0
KCH1 271532Z 19009G16KT 25/18 A2992 RMK A01 T02470179  RH  066%=      5-min Rain = 0
KCH1 271533Z 19014KT 25/18 A2991 RMK A01 T02470178  RH  065%=      5-min Rain = 0
KCH1 271534Z 18015KT 25/18 A2992 RMK A01 T02460176  RH  065%=      5-min Rain = 0
KCH1 271535Z 18015KT 25/18 A2992 RMK A01 T02450175  RH  065%=      5-min Rain = 0
KCH1 271536Z 18017KT 24/18 A2991 RMK A01 T02440175  RH  065%=      5-min Rain = 0
KCH1 271537Z 17015KT 24/18 A2991 RMK A01 T02430176  RH  066%=      5-min Rain = 0
KCH1 271538Z 19014G19KT 24/18 A2991 RMK A01 T02430175  RH  066%=      5-min Rain = 0
KCH1 271539Z 19014G19KT 24/18 A2991 RMK A01 T02430175  RH  066%=      5-min Rain = 0
KCH1 271540Z 19012G17KT 24/18 A2991 RMK A01 T02430177  RH  066%=      5-min Rain = 0
KCH1 271541Z 19013KT 24/18 A2991 RMK A01 T02440178  RH  067%=      5-min Rain = 0
KCH1 271542Z 18015KT 25/18 A2991 RMK A01 T02450178  RH  066%=      5-min Rain = 0
KCH1 271543Z 18016KT 25/18 A2991 RMK A01 T02450176  RH  066%=      5-min Rain = 0
KCH1 271544Z 18015KT 24/18 A2991 RMK A01 T02440176  RH  066%=      5-min Rain = 0
KCH1 271545Z 18013KT 24/18 A2991 RMK A01 T02440177  RH  066%=      5-min Rain = 0
KCH1 271546Z 17014KT 24/18 A2991 RMK A01 T02440177  RH  066%=      5-min Rain = 0
KCH1 271547Z 18011G18KT 25/18 A2991 RMK A01 T02450177  RH  066%=      5-min Rain = 0
KCH1 271548Z 18015G20KT 25/18 A2991 RMK A01 T02460177  RH  065%=      5-min Rain = 0
KCH1 271549Z 19013KT 25/18 A2991 RMK A01 T02460178  RH  066%=      5-min Rain = 0
KCH1 271550Z 19014G19KT 25/18 A2991 RMK A01 T02460178  RH  066%=      5-min Rain = 0
KCH1 271551Z 19014G19KT 25/18 A2991 RMK A01 T02460177  RH  066%=      5-min Rain = 0
KCH1 271552Z 20014G19KT 25/18 A2991 RMK A01 T02460177  RH  065%=      5-min Rain = 0
KCH1 271553Z 20012KT 25/18 A2991 RMK A01 T02460178  RH  066%=      5-min Rain = 0
KCH1 271554Z 18010KT 25/18 A2991 RMK A01 T02470180  RH  066%=      5-min Rain = 0
KCH1 271555Z 18010KT 25/18 A2991 RMK A01 T02490183  RH  067%=      5-min Rain = 0
KCH1 271556Z 17012G17KT 25/18 A2991 RMK A01 T02510182  RH  066%=      5-min Rain = 0
KCH1 271557Z 18013G18KT 25/18 A2991 RMK A01 T02510179  RH  064%=      5-min Rain = 0
KCH1 271558Z 18010KT 25/18 A2991 RMK A01 T02500181  RH  066%=      5-min Rain = 0
KCH1 271559Z 19010KT 25/18 A2991 RMK A01 T02500183  RH  066%=      5-min Rain = 0
KCH1 271600Z 19012G17KT 25/18 A2991 RMK A01 T02520183  RH  066%=      5-min Rain = 0
KCH1 271601Z 19015G21KT 25/18 A2991 RMK A01 T02520179  RH  064%=      5-min Rain = 0
KCH1 271602Z 19011KT 25/18 A2991 RMK A01 T02510181  RH  065%=      5-min Rain = 0
KCH1 271603Z 19014KT 25/18 A2991 RMK A01 T02510181  RH  065%=      5-min Rain = 0
KCH1 271604Z 18014KT 25/18 A2991 RMK A01 T02510180  RH  065%=      5-min Rain = 0
KCH1 271605Z 18011KT 25/18 A2991 RMK A01 T02510180  RH  065%=      5-min Rain = 0
KCH1 271606Z 19012G17KT 25/18 A2991 RMK A01 T02520181  RH  064%=      5-min Rain = 0
KCH1 271607Z 18009G14KT 25/18 A2991 RMK A01 T02520183  RH  065%=      5-min Rain = 0
KCH1 271608Z 19012KT 25/18 A2991 RMK A01 T02530182  RH  064%=      5-min Rain = 0
KCH1 271609Z 18012G19KT 25/18 A2991 RMK A01 T02530182  RH  065%=      5-min Rain = 0
KCH1 271610Z 18012KT 25/18 A2991 RMK A01 T02540181  RH  064%=      5-min Rain = 0
KCH1 271611Z 18010G15KT 25/18 A2991 RMK A01 T02540182  RH  065%=      5-min Rain = 0
KCH1 271612Z 17012G17KT 25/18 A2991 RMK A01 T02540183  RH  065%=      5-min Rain = 0
KCH1 271613Z 19010KT 25/18 A2991 RMK A01 T02540183  RH  065%=      5-min Rain = 0
KCH1 271614Z 16013KT 26/19 A2991 RMK A01 T02560185  RH  065%=      5-min Rain = 0
KCH1 271615Z 18011KT 26/18 A2991 RMK A01 T02570183  RH  064%=      5-min Rain = 0
KCH1 271616Z 17010KT 26/19 A2991 RMK A01 T02570186  RH  065%=      5-min Rain = 0
KCH1 271617Z 18011G19KT 26/19 A2991 RMK A01 T02570187  RH  065%=      5-min Rain = 0
KCH1 271618Z 18014KT 26/18 A2991 RMK A01 T02580183  RH  063%=      5-min Rain = 0
KCH1 271619Z 18015KT 26/18 A2991 RMK A01 T02570181  RH  063%=      5-min Rain = 0
KCH1 271620Z 17014G21KT 26/18 A2991 RMK A01 T02560183  RH  064%=      5-min Rain = 0
KCH1 271621Z 19010KT 26/19 A2991 RMK A01 T02560185  RH  065%=      5-min Rain = 0
KCH1 271622Z 18010G16KT 26/19 A2991 RMK A01 T02580186  RH  065%=      5-min Rain = 0
KCH1 271623Z 18015G20KT 26/18 A2991 RMK A01 T02580183  RH  063%=      5-min Rain = 0
KCH1 271624Z 18016KT 26/18 A2991 RMK A01 T02580182  RH  063%=      5-min Rain = 0
KCH1 271625Z 18014KT 26/18 A299 RMK A01 T02570182  RH  063%=      5-min Rain = 0
KCH1 271626Z 18013G19KT 26/18 A299 RMK A01 T02560183  RH  064%=      5-min Rain = 0
KCH1 271627Z 17014G20KT 26/18 A299 RMK A01 T02570184  RH  064%=      5-min Rain = 0
KCH1 271628Z 18015KT 26/18 A299 RMK A01 T02570181  RH  063%=      5-min Rain = 0
KCH1 271629Z 18014KT 26/18 A299 RMK A01 T02560181  RH  063%=      5-min Rain = 0
KCH1 271630Z 18012G18KT 26/18 A299 RMK A01 T02560183  RH  064%=      5-min Rain = 0
KCH1 271631Z 18012G17KT 26/19 A299 RMK A01 T02560185  RH  064%=      5-min Rain = 0
KCH1 271632Z 18012KT 26/19 A299 RMK A01 T02580186  RH  064%=      5-min Rain = 0
KCH1 271633Z 19011KT 26/19 A299 RMK A01 T02600187  RH  064%=      5-min Rain = 0
KCH1 271634Z 18008KT 26/19 A299 RMK A01 T02610187  RH  064%=      5-min Rain = 0
KCH1 271635Z 18009G14KT 26/19 A299 RMK A01 T02620191  RH  065%=      5-min Rain = 0
KCH1 271636Z 17014KT 26/19 A299 RMK A01 T02640188  RH  063%=      5-min Rain = 0
KCH1 271637Z 16016KT 26/19 A299 RMK A01 T02640188  RH  063%=      5-min Rain = 0
KCH1 271638Z 18012KT 26/19 A299 RMK A01 T02620186  RH  063%=      5-min Rain = 0
KCH1 271639Z 19010KT 26/19 A299 RMK A01 T02620189  RH  064%=      5-min Rain = 0
KCH1 271640Z 18014KT 26/19 A299 RMK A01 T02630187  RH  063%=      5-min Rain = 0
KCH1 271641Z 19014KT 26/19 A299 RMK A01 T02630185  RH  062%=      5-min Rain = 0
KCH1 271642Z 19015KT 26/19 A299 RMK A01 T02620185  RH  063%=      5-min Rain = 0
KCH1 271643Z 19015KT 26/18 A299 RMK A01 T02610184  RH  062%=      5-min Rain = 0
KCH1 271644Z 18014KT 26/18 A299 RMK A01 T02600184  RH  063%=      5-min Rain = 0
KCH1 271645Z 19013KT 26/18 A299 RMK A01 T02600184  RH  063%=      5-min Rain = 0
KCH1 271646Z 17012G19KT 26/19 A299 RMK A01 T02600187  RH  064%=      5-min Rain = 0
KCH1 271647Z 17015KT 26/19 A299 RMK A01 T02630188  RH  064%=      5-min Rain = 0
KCH1 271648Z 17015KT 26/19 A299 RMK A01 T02640186  RH  062%=      5-min Rain = 0
KCH1 271649Z 17014KT 26/19 A299 RMK A01 T02640188  RH  063%=      5-min Rain = 0
KCH1 271650Z 17011KT 26/19 A299 RMK A01 T02640186  RH  062%=      5-min Rain = 0
KCH1 271651Z 17013G18KT 26/19 A299 RMK A01 T02640187  RH  063%=      5-min Rain = 0
KCH1 271652Z 17015G21KT 26/19 A299 RMK A01 T02640188  RH  063%=      5-min Rain = 0
KCH1 271653Z 17011G18KT 26/19 A299 RMK A01 T02640187  RH  062%=      5-min Rain = 0
KCH1 271654Z 19012KT 26/19 A299 RMK A01 T02640188  RH  063%=      5-min Rain = 0
KCH1 271655Z 18015G21KT 27/19 A299 RMK A01 T02650188  RH  062%=      5-min Rain = 0
KCH1 271656Z 18013KT 27/19 A299 RMK A01 T02650185  RH  062%=      5-min Rain = 0
KCH1 271657Z 18009KT 26/19 A299 RMK A01 T02640188  RH  063%=      5-min Rain = 0
KCH1 271658Z 20011G17KT 26/19 A299 RMK A01 T02640190  RH  064%=      5-min Rain = 0
KCH1 271659Z 19014G20KT 27/19 A299 RMK A01 T02660187  RH  062%=      5-min Rain = 0
KCH1 271700Z 18014KT 27/19 A299 RMK A01 T02660189  RH  063%=      5-min Rain = 0
KCH1 271701Z 18014KT 27/19 A299 RMK A01 T02660188  RH  062%=      5-min Rain = 0
KCH1 271702Z 18012KT 27/19 A299 RMK A01 T02660187  RH  062%=      5-min Rain = 0
KCH1 271703Z 17015G20KT 27/19 A299 RMK A01 T02660190  RH  063%=      5-min Rain = 0
KCH1 271704Z 18014KT 27/19 A299 RMK A01 T02670189  RH  062%=      5-min Rain = 0
KCH1 271705Z 18013KT 27/19 A299 RMK A01 T02670188  RH  062%=      5-min Rain = 0
KCH1 271706Z 17013KT 27/19 A299 RMK A01 T02670187  RH  062%=      5-min Rain = 0
KCH1 271707Z 17012KT 27/19 A299 RMK A01 T02660187  RH  062%=      5-min Rain = 0
KCH1 271708Z 18010KT 27/19 A299 RMK A01 T02660191  RH  063%=      5-min Rain = 0
KCH1 271709Z 16010G15KT 27/19 A299 RMK A01 T02680193  RH  063%=      5-min Rain = 0
KCH1 271710Z 17013KT 27/19 A299 RMK A01 T02690190  RH  062%=      5-min Rain = 0
KCH1 271711Z 17010G15KT 27/19 A299 RMK A01 T02690190  RH  062%=      5-min Rain = 0
KCH1 271712Z 18011KT 27/19 A299 RMK A01 T02700192  RH  063%=      5-min Rain = 0
KCH1 271713Z 19011KT 27/19 A299 RMK A01 T02700189  RH  061%=      5-min Rain = 0
KCH1 271714Z 19012KT 27/19 A299 RMK A01 T02690192  RH  062%=      5-min Rain = 0
KCH1 271715Z 17007KT 27/20 A2989 RMK A01 T02700195  RH  064%=      5-min Rain = 0
KCH1 271716Z 17011G16KT 27/20 A299 RMK A01 T02720196  RH  063%=      5-min Rain = 0
KCH1 271717Z 17011KT 27/19 A299 RMK A01 T02730190  RH  061%=      5-min Rain = 0
KCH1 271718Z 18008KT 27/19 A299 RMK A01 T02710190  RH  061%=      5-min Rain = 0
KCH1 271719Z 16010KT 27/19 A299 RMK A01 T02700193  RH  063%=      5-min Rain = 0
KCH1 271720Z 18012G17KT 27/19 A2989 RMK A01 T02710194  RH  063%=      5-min Rain = 0
KCH1 271721Z 17015KT 27/19 A2989 RMK A01 T02720192  RH  062%=      5-min Rain = 0
KCH1 271722Z 18011KT 27/19 A2989 RMK A01 T02720190  RH  061%=      5-min Rain = 0
KCH1 271723Z 19013KT 27/19 A299 RMK A01 T02710192  RH  062%=      5-min Rain = 0
KCH1 271724Z 20012KT 27/19 A2989 RMK A01 T02710188  RH  061%=      5-min Rain = 0
KCH1 271725Z 17008G14KT 27/19 A2989 RMK A01 T02700193  RH  063%=      5-min Rain = 0
KCH1 271726Z 17011KT 27/20 A299 RMK A01 T02720198  RH  064%=      5-min Rain = 0
KCH1 271727Z 17011KT 27/20 A299 RMK A01 T02740195  RH  062%=      5-min Rain = 0
KCH1 271728Z 18012KT 28/19 A2989 RMK A01 T02750194  RH  061%=      5-min Rain = 0
KCH1 271729Z 16010G15KT 28/20 A2989 RMK A01 T02750195  RH  062%=      5-min Rain = 0
KCH1 271730Z 16009G14KT 28/20 A2989 RMK A01 T02750196  RH  062%=      5-min Rain = 0
KCH1 271731Z 16012KT 28/20 A2989 RMK A01 T02760198  RH  062%=      5-min Rain = 0
KCH1 271732Z 17010KT 28/20 A2989 RMK A01 T02770198  RH  062%=      5-min Rain = 0
KCH1 271733Z 17006KT 28/20 A2989 RMK A01 T02780202  RH  063%=      5-min Rain = 0
KCH1 271734Z 18013G19KT 28/20 A2989 RMK A01 T02800198  RH  061%=      5-min Rain = 0
KCH1 271735Z 16013G18KT 28/19 A2989 RMK A01 T02790193  RH  060%=      5-min Rain = 0
KCH1 271736Z 17013KT 28/19 A2989 RMK A01 T02760191  RH  060%=      5-min Rain = 0
KCH1 271737Z 17012KT 27/19 A2989 RMK A01 T02740192  RH  061%=      5-min Rain = 0
KCH1 271738Z 19008KT 27/20 A2989 RMK A01 T02740196  RH  062%=      5-min Rain = 0
KCH1 271739Z 19011KT 28/19 A2989 RMK A01 T02750193  RH  061%=      5-min Rain = 0
KCH1 271740Z 18009G16KT 28/20 A2989 RMK A01 T02750195  RH  062%=      5-min Rain = 0
KCH1 271741Z 17013KT 28/19 A2989 RMK A01 T02750194  RH  061%=      5-min Rain = 0
KCH1 271742Z 18010KT 28/20 A2989 RMK A01 T02760198  RH  063%=      5-min Rain = 0
KCH1 271743Z 19010KT 28/20 A2989 RMK A01 T02770195  RH  061%=      5-min Rain = 0
KCH1 271744Z 18010KT 28/20 A2989 RMK A01 T02780198  RH  062%=      5-min Rain = 0
KCH1 271745Z 18006KT 28/20 A2989 RMK A01 T02790199  RH  062%=      5-min Rain = 0
KCH1 271746Z 18008G14KT 28/20 A2989 RMK A01 T02790203  RH  063%=      5-min Rain = 0
KCH1 271747Z 18011KT 28/20 A2989 RMK A01 T02810197  RH  060%=      5-min Rain = 0
KCH1 271748Z 17014KT 28/20 A2989 RMK A01 T02810196  RH  060%=      5-min Rain = 0
KCH1 271749Z 18013KT 28/19 A2989 RMK A01 T02790193  RH  059%=      5-min Rain = 0
KCH1 271750Z 17013KT 28/20 A2989 RMK A01 T02780195  RH  061%=      5-min Rain = 0
KCH1 271751Z 18011KT 28/20 A2989 RMK A01 T02780198  RH  062%=      5-min Rain = 0
KCH1 271752Z 17013KT 28/19 A2989 RMK A01 T02790194  RH  060%=      5-min Rain = 0
KCH1 271753Z 17010G18KT 28/20 A2989 RMK A01 T02790196  RH  061%=      5-min Rain = 0
KCH1 271754Z 19010KT 28/20 A2989 RMK A01 T02790199  RH  062%=      5-min Rain = 0
KCH1 271755Z 17014KT 28/20 A2989 RMK A01 T02800197  RH  060%=      5-min Rain = 0
KCH1 271756Z 18013KT 28/19 A2989 RMK A01 T02800194  RH  059%=      5-min Rain = 0
KCH1 271757Z 19012KT 28/19 A2989 RMK A01 T02790194  RH  060%=      5-min Rain = 0
KCH1 271758Z 18014KT 28/19 A2989 RMK A01 T02780194  RH  060%=      5-min Rain = 0
KCH1 271759Z 19014KT 28/19 A2989 RMK A01 T02780193  RH  060%=      5-min Rain = 0
KCH1 271800Z 18011KT 28/19 A2989 RMK A01 T02770192  RH  060%=      5-min Rain = 0
KCH1 271801Z 18012KT 28/19 A2989 RMK A01 T02770194  RH  061%=      5-min Rain = 0
KCH1 271802Z 18014KT 28/19 A2989 RMK A01 T02770193  RH  060%=      5-min Rain = 0
KCH1 271803Z 17011KT 28/19 A2989 RMK A01 T02770194  RH  060%=      5-min Rain = 0
KCH1 271804Z 17009KT 28/19 A2988 RMK A01 T02770194  RH  061%=      5-min Rain = 0
KCH1 271805Z 18013G19KT 28/20 A2988 RMK A01 T02790198  RH  061%=      5-min Rain = 0
KCH1 271806Z 18011G16KT 28/20 A2988 RMK A01 T02800196  RH  060%=      5-min Rain = 0
KCH1 271807Z 18010KT 28/20 A2989 RMK A01 T02810197  RH  060%=      5-min Rain = 0
KCH1 271808Z 19011KT 28/20 A2988 RMK A01 T02820198  RH  060%=      5-min Rain = 0
KCH1 271809Z 20011KT 28/20 A2988 RMK A01 T02820196  RH  059%=      5-min Rain = 0
KCH1 271810Z 18007G12KT 28/20 A2988 RMK A01 T02820201  RH  061%=      5-min Rain = 0
KCH1 271811Z 18008KT 28/20 A2988 RMK A01 T02840203  RH  062%=      5-min Rain = 0
KCH1 271812Z 18011KT 29/20 A2988 RMK A01 T02860200  RH  060%=      5-min Rain = 0
KCH1 271813Z 17011KT 29/20 A2988 RMK A01 T02860200  RH  060%=      5-min Rain = 0
KCH1 271814Z 16013KT 29/20 A2988 RMK A01 T02860201  RH  060%=      5-min Rain = 0
KCH1 271815Z 16011KT 29/20 A2988 RMK A01 T02860195  RH  058%=      5-min Rain = 0
KCH1 271816Z 15012KT 28/20 A2988 RMK A01 T02840200  RH  060%=      5-min Rain = 0
KCH1 271817Z 18011KT 29/20 A2988 RMK A01 T02850199  RH  060%=      5-min Rain = 0
KCH1 271818Z 18012KT 29/20 A2988 RMK A01 T02850197  RH  059%=      5-min Rain = 0
KCH1 271819Z 18008KT 29/20 A2988 RMK A01 T02850203  RH  061%=      5-min Rain = 0
KCH1 271820Z 18006G11KT 29/20 A2988 RMK A01 T02860203  RH  061%=      5-min Rain = 0
KCH1 271821Z 18010KT 29/20 A2988 RMK A01 T02880198  RH  059%=      5-min Rain = 0
KCH1 271822Z 19009KT 29/20 A2988 RMK A01 T02860198  RH  059%=      5-min Rain = 0
KCH1 271823Z 18012KT 29/20 A2988 RMK A01 T02850200  RH  060%=      5-min Rain = 0
KCH1 271824Z 20012KT 29/20 A2988 RMK A01 T02860200  RH  059%=      5-min Rain = 0
KCH1 271825Z 19009KT 29/20 A2988 RMK A01 T02860196  RH  058%=      5-min Rain = 0
KCH1 271826Z 17014KT 29/20 A2988 RMK A01 T02850196  RH  059%=      5-min Rain = 0
KCH1 271827Z 17013KT 28/20 A2988 RMK A01 T02840195  RH  058%=      5-min Rain = 0
KCH1 271828Z 17013KT 28/20 A2988 RMK A01 T02840196  RH  059%=      5-min Rain = 0
KCH1 271829Z 17012KT 28/19 A2987 RMK A01 T02840194  RH  058%=      5-min Rain = 0
KCH1 271830Z 17009KT 28/20 A2987 RMK A01 T02830195  RH  059%=      5-min Rain = 0
KCH1 271831Z 17010KT 28/20 A2987 RMK A01 T02830200  RH  061%=      5-min Rain = 0
KCH1 271832Z 19008KT 29/20 A2987 RMK A01 T02850197  RH  059%=      5-min Rain = 0
KCH1 271833Z 17008KT 29/20 A2987 RMK A01 T02850199  RH  060%=      5-min Rain = 0
KCH1 271834Z 19007KT 29/20 A2987 RMK A01 T02860204  RH  061%=      5-min Rain = 0
KCH1 271835Z 19009KT 29/20 A2987 RMK A01 T02880201  RH  059%=      5-min Rain = 0
KCH1 271836Z 17012G17KT 29/20 A2987 RMK A01 T02880200  RH  059%=      5-min Rain = 0
KCH1 271837Z 17012KT 29/20 A2987 RMK A01 T02880199  RH  059%=      5-min Rain = 0
KCH1 271838Z 17013KT 29/20 A2987 RMK A01 T02870198  RH  059%=      5-min Rain = 0
KCH1 271839Z 17009G14KT 29/20 A2987 RMK A01 T02870199  RH  059%=      5-min Rain = 0
KCH1 271840Z 17010KT 29/20 A2987 RMK A01 T02870203  RH  060%=      5-min Rain = 0
KCH1 271841Z 17012KT 29/20 A2987 RMK A01 T02890200  RH  059%=      5-min Rain = 0
KCH1 271842Z 18011KT 29/20 A2987 RMK A01 T02900203  RH  060%=      5-min Rain = 0
KCH1 271843Z 17011KT 29/20 A2987 RMK A01 T02910201  RH  058%=      5-min Rain = 0
KCH1 271844Z 16009KT 29/20 A2987 RMK A01 T02910203  RH  059%=      5-min Rain = 0
KCH1 271845Z 15012KT 29/20 A2987 RMK A01 T02920202  RH  059%=      5-min Rain = 0
KCH1 271846Z 17010KT 29/20 A2987 RMK A01 T02920201  RH  058%=      5-min Rain = 0
KCH1 271847Z 19013KT 29/20 A2987 RMK A01 T02910200  RH  058%=      5-min Rain = 0
KCH1 271848Z 18014KT 29/20 A2987 RMK A01 T02900197  RH  057%=      5-min Rain = 0
KCH1 271849Z 18010KT 29/20 A2987 RMK A01 T02880199  RH  058%=      5-min Rain = 0
KCH1 271850Z 20010KT 29/20 A2986 RMK A01 T02880198  RH  058%=      5-min Rain = 0
KCH1 271851Z 19008KT 29/20 A2986 RMK A01 T02880197  RH  058%=      5-min Rain = 0
KCH1 271852Z 19009KT 29/20 A2986 RMK A01 T02880199  RH  059%=      5-min Rain = 0
KCH1 271853Z 19010KT 29/20 A2986 RMK A01 T02890200  RH  059%=      5-min Rain = 0
KCH1 271854Z 18011KT 29/20 A2986 RMK A01 T02900203  RH  059%=      5-min Rain = 0
KCH1 271855Z 18010G16KT 29/21 A2986 RMK A01 T02920208  RH  061%=      5-min Rain = 0
KCH1 271856Z 18008G13KT 29/20 A2986 RMK A01 T02940201  RH  057%=      5-min Rain = 0
KCH1 271857Z 21011KT 29/21 A2986 RMK A01 T02930205  RH  059%=      5-min Rain = 0
KCH1 271858Z 20011KT 29/20 A2986 RMK A01 T02930200  RH  057%=      5-min Rain = 0
KCH1 271859Z 19009KT 29/20 A2986 RMK A01 T02920201  RH  058%=      5-min Rain = 0
KCH1 271900Z 19008KT 29/20 A2986 RMK A01 T02910202  RH  058%=      5-min Rain = 0
KCH1 271901Z 19008KT 29/21 A2986 RMK A01 T02920205  RH  060%=      5-min Rain = 0
KCH1 271902Z 18008KT 29/20 A2986 RMK A01 T02930201  RH  058%=      5-min Rain = 0
KCH1 271903Z 18006KT 29/21 A2986 RMK A01 T02930206  RH  059%=      5-min Rain = 0
KCH1 271904Z 16006KT 29/21 A2986 RMK A01 T02940209  RH  060%=      5-min Rain = 0
KCH1 271905Z 17011KT 30/21 A2986 RMK A01 T02960209  RH  059%=      5-min Rain = 0
KCH1 271906Z 18013KT 30/20 A2986 RMK A01 T02970202  RH  057%=      5-min Rain = 0
KCH1 271907Z 18012KT 29/20 A2986 RMK A01 T02940202  RH  058%=      5-min Rain = 0
KCH1 271908Z 17008KT 29/21 A2986 RMK A01 T02930205  RH  059%=      5-min Rain = 0
KCH1 271909Z 19006KT 29/20 A2986 RMK A01 T02930203  RH  058%=      5-min Rain = 0
KCH1 271910Z 20009KT 29/20 A2986 RMK A01 T02930204  RH  059%=      5-min Rain = 0
KCH1 271911Z 19007KT 29/21 A2986 RMK A01 T02940205  RH  059%=      5-min Rain = 0
KCH1 271912Z 18008KT 29/20 A2986 RMK A01 T02940204  RH  058%=      5-min Rain = 0
KCH1 271913Z 18008KT 30/21 A2986 RMK A01 T02950205  RH  058%=      5-min Rain = 0
KCH1 271914Z 19010G15KT 30/21 A2986 RMK A01 T02950211  RH  061%=      5-min Rain = 0
KCH1 271915Z 18014KT 30/20 A2985 RMK A01 T02970202  RH  057%=      5-min Rain = 0
KCH1 271916Z 18010KT 30/20 A2985 RMK A01 T02950202  RH  057%=      5-min Rain = 0
KCH1 271917Z 18013KT 29/20 A2985 RMK A01 T02930201  RH  058%=      5-min Rain = 0
KCH1 271918Z 18011KT 29/20 A2985 RMK A01 T02930198  RH  057%=      5-min Rain = 0
KCH1 271919Z 17010KT 29/20 A2985 RMK A01 T02920203  RH  059%=      5-min Rain = 0
KCH1 271920Z 17012KT 29/20 A2985 RMK A01 T02930203  RH  058%=      5-min Rain = 0
KCH1 271921Z 18012KT 29/20 A2985 RMK A01 T02940202  RH  058%=      5-min Rain = 0
KCH1 271922Z 18012KT 29/20 A2985 RMK A01 T02940201  RH  057%=      5-min Rain = 0
KCH1 271923Z 18011G16KT 29/20 A2985 RMK A01 T02940204  RH  058%=      5-min Rain = 0
KCH1 271924Z 16014KT 30/20 A2985 RMK A01 T02950203  RH  058%=      5-min Rain = 0
KCH1 271925Z 18011KT 29/20 A2985 RMK A01 T02940204  RH  059%=      5-min Rain = 0
KCH1 271926Z 17011KT 29/21 A2985 RMK A01 T02940205  RH  059%=      5-min Rain = 0
KCH1 271927Z 17011G17KT 29/20 A2985 RMK A01 T02940203  RH  058%=      5-min Rain = 0
KCH1 271928Z 17014KT 30/21 A2985 RMK A01 T02950206  RH  059%=      5-min Rain = 0
KCH1 271929Z 18010KT 30/21 A2985 RMK A01 T02960205  RH  058%=      5-min Rain = 0
KCH1 271930Z 18009KT 30/21 A2985 RMK A01 T02970210  RH  060%=      5-min Rain = 0
KCH1 271931Z 18013KT 30/21 A2985 RMK A01 T02990206  RH  058%=      5-min Rain = 0
KCH1 271932Z 19014KT 30/20 A2984 RMK A01 T02990203  RH  057%=      5-min Rain = 0
KCH1 271933Z 18016KT 30/20 A2984 RMK A01 T02980204  RH  057%=      5-min Rain = 0
KCH1 271934Z 18012G18KT 30/20 A2984 RMK A01 T02970204  RH  057%=      5-min Rain = 0
KCH1 271935Z 16014KT 30/20 A2984 RMK A01 T02970204  RH  057%=      5-min Rain = 0
KCH1 271936Z 19010KT 30/21 A2984 RMK A01 T02970206  RH  058%=      5-min Rain = 0
KCH1 271937Z 17011G17KT 30/21 A2984 RMK A01 T02970207  RH  058%=      5-min Rain = 0
KCH1 271938Z 16013G19KT 30/21 A2984 RMK A01 T02980210  RH  059%=      5-min Rain = 0
KCH1 271939Z 16012KT 30/21 A2984 RMK A01 T02990210  RH  059%=      5-min Rain = 0
KCH1 271940Z 16013KT 30/21 A2984 RMK A01 T03000208  RH  058%=      5-min Rain = 0
KCH1 271941Z 15014KT 30/20 A2984 RMK A01 T03000204  RH  056%=      5-min Rain = 0
KCH1 271942Z 15011G17KT 30/21 A2983 RMK A01 T02990208  RH  058%=      5-min Rain = 0
KCH1 271943Z 17011KT 30/21 A2983 RMK A01 T02990207  RH  058%=      5-min Rain = 0
KCH1 271944Z 16007KT 30/21 A2983 RMK A01 T03000214  RH  060%=      5-min Rain = 0
KCH1 271945Z 16012KT 30/21 A2983 RMK A01 T03010213  RH  059%=      5-min Rain = 0
KCH1 271946Z 16012KT 30/21 A2983 RMK A01 T03030211  RH  058%=      5-min Rain = 0
KCH1 271947Z 17009G15KT 30/21 A2983 RMK A01 T03030211  RH  058%=      5-min Rain = 0
KCH1 271948Z 19007KT 30/22 A2983 RMK A01 T03030217  RH  060%=      5-min Rain = 0
KCH1 271949Z 18007KT 31/22 A2983 RMK A01 T03050216  RH  059%=      5-min Rain = 0
KCH1 271950Z 18009KT 31/21 A2983 RMK A01 T03060213  RH  058%=      5-min Rain = 0
KCH1 271951Z 18009KT 31/21 A2983 RMK A01 T03060212  RH  057%=      5-min Rain = 0
KCH1 271952Z 19009KT 31/21 A2983 RMK A01 T03050214  RH  058%=      5-min Rain = 0
KCH1 271953Z 19011KT 31/22 A2983 RMK A01 T03060216  RH  059%=      5-min Rain = 0
KCH1 271954Z 18015KT 31/21 A2983 RMK A01 T03060209  RH  056%=      5-min Rain = 0
KCH1 271955Z 18013KT 30/21 A2983 RMK A01 T03040208  RH  057%=      5-min Rain = 0
KCH1 271956Z 18010KT 30/21 A2983 RMK A01 T03020209  RH  058%=      5-min Rain = 0
KCH1 271957Z 19010G15KT 30/21 A2982 RMK A01 T03020214  RH  060%=      5-min Rain = 0
KCH1 271958Z 20012KT 30/21 A2982 RMK A01 T03040210  RH  057%=      5-min Rain = 0
KCH1 271959Z 19013KT 30/21 A2982 RMK A01 T03040210  RH  057%=      5-min Rain = 0
KCH1 272000Z 18011KT 30/21 A2982 RMK A01 T03030209  RH  057%=      5-min Rain = 0
KCH1 272001Z 18010KT 30/21 A2982 RMK A01 T03030210  RH  057%=      5-min Rain = 0
KCH1 272002Z 19008KT 30/21 A2982 RMK A01 T03030211  RH  058%=      5-min Rain = 0
KCH1 272003Z 19012G17KT 31/21 A2982 RMK A01 T03050212  RH  058%=      5-min Rain = 0
KCH1 272004Z 19009G14KT 31/21 A2982 RMK A01 T03050210  RH  057%=      5-min Rain = 0
KCH1 272005Z 19010KT 31/21 A2982 RMK A01 T03060212  RH  057%=      5-min Rain = 0
KCH1 272006Z 21012KT 31/21 A2982 RMK A01 T03060210  RH  057%=      5-min Rain = 0
KCH1 272007Z 21009KT 31/21 A2982 RMK A01 T03060211  RH  057%=      5-min Rain = 0
KCH1 272008Z 20010KT 31/21 A2982 RMK A01 T03060211  RH  057%=      5-min Rain = 0
KCH1 272009Z 18011KT 31/21 A2982 RMK A01 T03060211  RH  057%=      5-min Rain = 0
KCH1 272010Z 18008KT 31/21 A2982 RMK A01 T03060209  RH  056%=      5-min Rain = 0
KCH1 272011Z 18010KT 31/21 A2982 RMK A01 T03050211  RH  057%=      5-min Rain = 0
KCH1 272012Z 18008KT 31/21 A2982 RMK A01 T03050213  RH  058%=      5-min Rain = 0
KCH1 272013Z 18012G17KT 31/21 A2982 RMK A01 T03050211  RH  057%=      5-min Rain = 0
KCH1 272014Z 17012KT 31/21 A2982 RMK A01 T03060208  RH  056%=      5-min Rain = 0
KCH1 272015Z 18010KT 31/21 A2982 RMK A01 T03050209  RH  056%=      5-min Rain = 0
KCH1 272016Z 19009G14KT 31/21 A2982 RMK A01 T03050214  RH  058%=      5-min Rain = 0
KCH1 272017Z 19009KT 31/21 A2982 RMK A01 T03070213  RH  057%=      5-min Rain = 0
KCH1 272018Z 18012KT 31/21 A2982 RMK A01 T03080213  RH  057%=      5-min Rain = 0
KCH1 272019Z 18012KT 31/21 A2982 RMK A01 T03080212  RH  056%=      5-min Rain = 0
KCH1 272020Z 19007KT 31/22 A2981 RMK A01 T03080217  RH  058%=      5-min Rain = 0
KCH1 272021Z 19009KT 31/22 A2981 RMK A01 T03090215  RH  057%=      5-min Rain = 0
KCH1 272022Z 19011KT 31/21 A2981 RMK A01 T03100212  RH  056%=      5-min Rain = 0
KCH1 272023Z 19007KT 31/22 A2981 RMK A01 T03100219  RH  059%=      5-min Rain = 0
KCH1 272024Z 18008KT 31/22 A2981 RMK A01 T03110218  RH  058%=      5-min Rain = 0
KCH1 272025Z 17010G16KT 31/22 A2981 RMK A01 T03130219  RH  058%=      5-min Rain = 0
KCH1 272026Z 18014KT 31/21 A2981 RMK A01 T03130213  RH  055%=      5-min Rain = 0
KCH1 272027Z 17010KT 31/21 A2981 RMK A01 T03100214  RH  057%=      5-min Rain = 0
KCH1 272028Z 18010G15KT 31/21 A2981 RMK A01 T03080214  RH  057%=      5-min Rain = 0
KCH1 272029Z 18010KT 31/21 A2981 RMK A01 T03070213  RH  057%=      5-min Rain = 0
KCH1 272030Z 18014KT 31/21 A2981 RMK A01 T03070211  RH  056%=      5-min Rain = 0
KCH1 272031Z 18012KT 31/21 A2981 RMK A01 T03070212  RH  057%=      5-min Rain = 0
KCH1 272032Z 17010KT 31/21 A2981 RMK A01 T03080211  RH  056%=      5-min Rain = 0
KCH1 272033Z 16010KT 31/22 A2981 RMK A01 T03090216  RH  058%=      5-min Rain = 0
KCH1 272034Z 16013KT 31/22 A2981 RMK A01 T03100215  RH  057%=      5-min Rain = 0
KCH1 272035Z 16011G16KT 31/22 A298 RMK A01 T03110215  RH  057%=      5-min Rain = 0
KCH1 272036Z 16014KT 31/21 A298 RMK A01 T03100213  RH  056%=      5-min Rain = 0
KCH1 272037Z 16013G18KT 31/21 A298 RMK A01 T03090214  RH  057%=      5-min Rain = 0
KCH1 272038Z 17015KT 31/21 A298 RMK A01 T03090211  RH  056%=      5-min Rain = 0
KCH1 272039Z 17012KT 31/21 A298 RMK A01 T03070208  RH  056%=      5-min Rain = 0
KCH1 272040Z 19015KT 31/21 A298 RMK A01 T03060209  RH  056%=      5-min Rain = 0
KCH1 272041Z 18013KT 31/21 A298 RMK A01 T03060210  RH  056%=      5-min Rain = 0
KCH1 272042Z 18012KT 31/21 A298 RMK A01 T03060209  RH  056%=      5-min Rain = 0
KCH1 272043Z 18011KT 31/21 A298 RMK A01 T03050210  RH  057%=      5-min Rain = 0
KCH1 272044Z 18012KT 31/21 A298 RMK A01 T03050209  RH  056%=      5-min Rain = 0
KCH1 272045Z 18010KT 31/21 A298 RMK A01 T03050208  RH  056%=      5-min Rain = 0
KCH1 272046Z 18010KT 30/21 A298 RMK A01 T03040208  RH  057%=      5-min Rain = 0
KCH1 272047Z 19011KT 30/21 A298 RMK A01 T03030210  RH  057%=      5-min Rain = 0
KCH1 272048Z 18009KT 30/21 A298 RMK A01 T03030209  RH  057%=      5-min Rain = 0
KCH1 272049Z 17008KT 30/22 A298 RMK A01 T03040216  RH  059%=      5-min Rain = 0
KCH1 272050Z 15013KT 31/22 A298 RMK A01 T03080215  RH  058%=      5-min Rain = 0
KCH1 272051Z 16011KT 31/22 A298 RMK A01 T03100215  RH  057%=      5-min Rain = 0
KCH1 272052Z 17011G18KT 31/21 A298 RMK A01 T03110214  RH  056%=      5-min Rain = 0
KCH1 272053Z 17014G19KT 31/21 A298 RMK A01 T03110209  RH  055%=      5-min Rain = 0
KCH1 272054Z 17016KT 31/21 A298 RMK A01 T03100212  RH  056%=      5-min Rain = 0
KCH1 272055Z 18013G18KT 31/21 A298 RMK A01 T03100213  RH  056%=      5-min Rain = 0
KCH1 272056Z 19013KT 31/21 A298 RMK A01 T03090208  RH  055%=      5-min Rain = 0
KCH1 272057Z 19011KT 31/21 A298 RMK A01 T03080208  RH  055%=      5-min Rain = 0
KCH1 272058Z 19012G17KT 31/21 A298 RMK A01 T03080207  RH  055%=      5-min Rain = 0
KCH1 272059Z 20008KT 31/21 A298 RMK A01 T03070209  RH  056%=      5-min Rain = 0
KCH1 272100Z 20013KT 31/21 A298 RMK A01 T03080210  RH  056%=      5-min Rain = 0
KCH1 272101Z 20011KT 31/21 A298 RMK A01 T03100209  RH  055%=      5-min Rain = 0
KCH1 272102Z 20013KT 31/21 A298 RMK A01 T03100210  RH  055%=      5-min Rain = 0
KCH1 272103Z 19013G18KT 31/21 A298 RMK A01 T03090208  RH  055%=      5-min Rain = 0
KCH1 272104Z 18011KT 31/21 A298 RMK A01 T03080209  RH  056%=      5-min Rain = 0
KCH1 272105Z 18009KT 31/21 A298 RMK A01 T03080212  RH  057%=      5-min Rain = 0
KCH1 272106Z 17005KT 31/22 A298 RMK A01 T03100220  RH  059%=      5-min Rain = 0
KCH1 272107Z 16009KT 31/22 A298 RMK A01 T03130219  RH  057%=      5-min Rain = 0
KCH1 272108Z 14012KT 32/22 A2979 RMK A01 T03160218  RH  056%=      5-min Rain = 0
KCH1 272109Z 18009KT 32/22 A2979 RMK A01 T03170216  RH  055%=      5-min Rain = 0
KCH1 272110Z 18008G14KT 32/22 A2979 RMK A01 T03170223  RH  057%=      5-min Rain = 0
KCH1 272111Z 17012KT 32/22 A2979 RMK A01 T03180221  RH  057%=      5-min Rain = 0
KCH1 272112Z 16012G17KT 32/21 A2979 RMK A01 T03170210  RH  053%=      5-min Rain = 0
KCH1 272113Z 19007KT 31/21 A2979 RMK A01 T03140213  RH  055%=      5-min Rain = 0
KCH1 272114Z 18015KT 31/21 A2979 RMK A01 T03130213  RH  055%=      5-min Rain = 0
KCH1 272115Z 16015KT 31/21 A2979 RMK A01 T03130213  RH  055%=      5-min Rain = 0
KCH1 272116Z 16014KT 31/21 A2979 RMK A01 T03140210  RH  054%=      5-min Rain = 0
KCH1 272117Z 17013KT 31/21 A2979 RMK A01 T03130211  RH  055%=      5-min Rain = 0
KCH1 272118Z 18011KT 31/21 A2979 RMK A01 T03120211  RH  055%=      5-min Rain = 0
KCH1 272119Z 17012KT 31/21 A2979 RMK A01 T03120213  RH  056%=      5-min Rain = 0
KCH1 272120Z 18009KT 31/21 A2979 RMK A01 T03130213  RH  055%=      5-min Rain = 0
KCH1 272121Z 19010KT 31/21 A2979 RMK A01 T03140214  RH  056%=      5-min Rain = 0
KCH1 272122Z 17010KT 31/21 A2979 RMK A01 T03130209  RH  054%=      5-min Rain = 0
KCH1 272123Z 17009KT 31/21 A2979 RMK A01 T03120211  RH  055%=      5-min Rain = 0
KCH1 272124Z 16010KT 31/21 A2979 RMK A01 T03130214  RH  056%=      5-min Rain = 0
KCH1 272125Z 16013KT 31/21 A2979 RMK A01 T03140214  RH  055%=      5-min Rain = 0
KCH1 272126Z 15011KT 32/21 A2979 RMK A01 T03150213  RH  055%=      5-min Rain = 0
KCH1 272127Z 16015KT 32/21 A2979 RMK A01 T03150212  RH  055%=      5-min Rain = 0
KCH1 272128Z 15010KT 32/22 A2979 RMK A01 T03150215  RH  055%=      5-min Rain = 0
KCH1 272129Z 16010KT 31/22 A2979 RMK A01 T03140219  RH  057%=      5-min Rain = 0
KCH1 272130Z 16013KT 31/21 A2979 RMK A01 T03130210  RH  054%=      5-min Rain = 0
KCH1 272131Z 17012KT 31/21 A2979 RMK A01 T03100208  RH  055%=      5-min Rain = 0
KCH1 272132Z 17009KT 31/21 A2979 RMK A01 T03080211  RH  056%=      5-min Rain = 0
KCH1 272133Z 15012KT 31/21 A2978 RMK A01 T03070209  RH  056%=      5-min Rain = 0
KCH1 272134Z 16010KT 31/21 A2978 RMK A01 T03070208  RH  056%=      5-min Rain = 0
KCH1 272135Z 16009KT 31/21 A2978 RMK A01 T03070211  RH  057%=      5-min Rain = 0
KCH1 272136Z 17012KT 31/21 A2978 RMK A01 T03070208  RH  056%=      5-min Rain = 0
KCH1 272137Z 16010KT 31/21 A2978 RMK A01 T03070209  RH  056%=      5-min Rain = 0
KCH1 272138Z 17011KT 31/21 A2978 RMK A01 T03060207  RH  055%=      5-min Rain = 0
KCH1 272139Z 16016KT 31/21 A2978 RMK A01 T03060207  RH  055%=      5-min Rain = 0
KCH1 272140Z 16015G20KT 31/21 A2978 RMK A01 T03060206  RH  055%=      5-min Rain = 0
KCH1 272141Z 15013KT 31/21 A2978 RMK A01 T03070208  RH  056%=      5-min Rain = 0
KCH1 272142Z 16013KT 31/21 A2978 RMK A01 T03070209  RH  056%=      5-min Rain = 0
KCH1 272143Z 17013KT 31/21 A2978 RMK A01 T03070210  RH  056%=      5-min Rain = 0
KCH1 272144Z 15013KT 31/21 A2978 RMK A01 T03080208  RH  055%=      5-min Rain = 0
KCH1 272145Z 17012KT 31/21 A2978 RMK A01 T03080208  RH  055%=      5-min Rain = 0
KCH1 272146Z 17008G14KT 31/21 A2978 RMK A01 T03080211  RH  056%=      5-min Rain = 0
KCH1 272147Z 16009KT 31/21 A2978 RMK A01 T03080211  RH  056%=      5-min Rain = 0
KCH1 272148Z 17010KT 31/21 A2978 RMK A01 T03080210  RH  056%=      5-min Rain = 0
KCH1 272149Z 17014KT 31/21 A2978 RMK A01 T03080207  RH  055%=      5-min Rain = 0
KCH1 272150Z 17012KT 31/21 A2977 RMK A01 T03070208  RH  055%=      5-min Rain = 0
KCH1 272151Z 17009KT 31/21 A2978 RMK A01 T03060209  RH  056%=      5-min Rain = 0
KCH1 272152Z 16011KT 31/21 A2978 RMK A01 T03050208  RH  056%=      5-min Rain = 0
KCH1 272153Z 17008KT 31/21 A2978 RMK A01 T03050209  RH  057%=      5-min Rain = 0
KCH1 272154Z 17009KT 31/21 A2978 RMK A01 T03060212  RH  057%=      5-min Rain = 0
KCH1 272155Z 17010KT 31/21 A2977 RMK A01 T03060211  RH  057%=      5-min Rain = 0
KCH1 272156Z 17009KT 31/21 A2977 RMK A01 T03060211  RH  057%=      5-min Rain = 0
KCH1 272157Z 16010KT 31/21 A2977 RMK A01 T03070211  RH  057%=      5-min Rain = 0
KCH1 272158Z 17009KT 31/21 A2977 RMK A01 T03060211  RH  057%=      5-min Rain = 0
KCH1 272159Z 17012KT 31/21 A2977 RMK A01 T03050209  RH  056%=      5-min Rain = 0
KCH1 272200Z 17012KT 31/21 A2977 RMK A01 T03050207  RH  056%=      5-min Rain = 0
KCH1 272201Z 16009KT 31/21 A2977 RMK A01 T03050208  RH  056%=      5-min Rain = 0
KCH1 272202Z 17007KT 31/21 A2977 RMK A01 T03050212  RH  057%=      5-min Rain = 0
KCH1 272203Z 18009KT 31/21 A2977 RMK A01 T03070212  RH  057%=      5-min Rain = 0
KCH1 272204Z 17008KT 31/21 A2977 RMK A01 T03090212  RH  056%=      5-min Rain = 0
KCH1 272205Z 16011KT 31/21 A2977 RMK A01 T03100212  RH  056%=      5-min Rain = 0
KCH1 272206Z 15013KT 31/21 A2977 RMK A01 T03100211  RH  056%=      5-min Rain = 0
KCH1 272207Z 16014KT 31/21 A2976 RMK A01 T03110209  RH  055%=      5-min Rain = 0
KCH1 272208Z 16012G17KT 31/21 A2976 RMK A01 T03110209  RH  055%=      5-min Rain = 0
KCH1 272209Z 18013KT 31/21 A2976 RMK A01 T03100208  RH  055%=      5-min Rain = 0
KCH1 272210Z 17011KT 31/21 A2976 RMK A01 T03090208  RH  055%=      5-min Rain = 0
KCH1 272211Z 18011G16KT 31/21 A2976 RMK A01 T03080207  RH  055%=      5-min Rain = 0
KCH1 272212Z 17011KT 31/21 A2976 RMK A01 T03100212  RH  056%=      5-min Rain = 0
KCH1 272213Z 17012KT 31/21 A2976 RMK A01 T03120209  RH  054%=      5-min Rain = 0
KCH1 272214Z 16013KT 31/21 A2976 RMK A01 T03130209  RH  054%=      5-min Rain = 0
KCH1 272215Z 16013KT 31/21 A2976 RMK A01 T03120209  RH  054%=      5-min Rain = 0
KCH1 272216Z 17016KT 31/21 A2976 RMK A01 T03130207  RH  054%=      5-min Rain = 0
KCH1 272217Z 17012G18KT 31/21 A2976 RMK A01 T03130207  RH  053%=      5-min Rain = 0
KCH1 272218Z 17012KT 31/21 A2976 RMK A01 T03140209  RH  054%=      5-min Rain = 0
KCH1 272219Z 17010G15KT 31/21 A2976 RMK A01 T03140212  RH  055%=      5-min Rain = 0
KCH1 272220Z 17013KT 31/21 A2976 RMK A01 T03140209  RH  054%=      5-min Rain = 0
KCH1 272221Z 17010KT 31/21 A2976 RMK A01 T03130210  RH  054%=      5-min Rain = 0
KCH1 272222Z 16012KT 31/21 A2976 RMK A01 T03110209  RH  054%=      5-min Rain = 0
KCH1 272223Z 17014KT 31/21 A2976 RMK A01 T03100206  RH  054%=      5-min Rain = 0
KCH1 272224Z 16011KT 31/21 A2976 RMK A01 T03100206  RH  054%=      5-min Rain = 0
KCH1 272225Z 17008KT 31/21 A2976 RMK A01 T03110211  RH  055%=      5-min Rain = 0
KCH1 272226Z 17010KT 31/21 A2976 RMK A01 T03130210  RH  054%=      5-min Rain = 0
KCH1 272227Z 16013KT 31/21 A2976 RMK A01 T03130209  RH  054%=      5-min Rain = 0
KCH1 272228Z 17011KT 31/21 A2975 RMK A01 T03140212  RH  055%=      5-min Rain = 0
KCH1 272229Z 17011KT 31/21 A2975 RMK A01 T03140210  RH  054%=      5-min Rain = 0
KCH1 272230Z 17015KT 31/21 A2976 RMK A01 T03140210  RH  054%=      5-min Rain = 0
KCH1 272231Z 16015G20KT 31/21 A2975 RMK A01 T03130207  RH  054%=      5-min Rain = 0
KCH1 272232Z 15012G17KT 31/21 A2975 RMK A01 T03110208  RH  054%=      5-min Rain = 0
KCH1 272233Z 16014KT 31/21 A2975 RMK A01 T03110209  RH  055%=      5-min Rain = 0
KCH1 272234Z 15015KT 31/21 A2975 RMK A01 T03110206  RH  054%=      5-min Rain = 0
KCH1 272235Z 16011KT 31/21 A2975 RMK A01 T03110209  RH  054%=      5-min Rain = 0
KCH1 272236Z 17011KT 31/21 A2975 RMK A01 T03120211  RH  055%=      5-min Rain = 0
KCH1 272237Z 17010KT 31/21 A2975 RMK A01 T03130211  RH  055%=      5-min Rain = 0
KCH1 272238Z 17014G19KT 31/21 A2975 RMK A01 T03130210  RH  054%=      5-min Rain = 0
KCH1 272239Z 17013KT 31/21 A2975 RMK A01 T03130209  RH  054%=      5-min Rain = 0
KCH1 272240Z 17013KT 31/21 A2975 RMK A01 T03130208  RH  054%=      5-min Rain = 0
KCH1 272241Z 17013G18KT 31/21 A2975 RMK A01 T03130208  RH  054%=      5-min Rain = 0
KCH1 272242Z 16015KT 31/21 A2975 RMK A01 T03130209  RH  054%=      5-min Rain = 0
KCH1 272243Z 16014KT 31/21 A2975 RMK A01 T03130207  RH  053%=      5-min Rain = 0
KCH1 272244Z 17015KT 31/21 A2975 RMK A01 T03130208  RH  053%=      5-min Rain = 0
KCH1 272245Z 16013KT 31/21 A2975 RMK A01 T03130208  RH  054%=      5-min Rain = 0
KCH1 272246Z 16012KT 31/21 A2975 RMK A01 T03130209  RH  054%=      5-min Rain = 0
KCH1 272247Z 16013KT 31/21 A2975 RMK A01 T03130209  RH  054%=      5-min Rain = 0
KCH1 272248Z 16012KT 31/21 A2975 RMK A01 T03140208  RH  054%=      5-min Rain = 0
KCH1 272249Z 17011KT 31/21 A2975 RMK A01 T03140211  RH  055%=      5-min Rain = 0
KCH1 272250Z 18011KT 31/21 A2975 RMK A01 T03140210  RH  054%=      5-min Rain = 0
KCH1 272251Z 17010G15KT 32/21 A2975 RMK A01 T03150212  RH  054%=      5-min Rain = 0
KCH1 272252Z 16015KT 32/21 A2975 RMK A01 T03150209  RH  053%=      5-min Rain = 0
KCH1 272253Z 17013KT 31/21 A2975 RMK A01 T03140208  RH  053%=      5-min Rain = 0
KCH1 272254Z 17012KT 31/21 A2975 RMK A01 T03130206  RH  053%=      5-min Rain = 0
KCH1 272255Z 17010KT 31/21 A2975 RMK A01 T03130207  RH  053%=      5-min Rain = 0
KCH1 272256Z 17009KT 31/21 A2975 RMK A01 T03130210  RH  054%=      5-min Rain = 0
KCH1 272257Z 17012G17KT 31/21 A2975 RMK A01 T03130210  RH  054%=      5-min Rain = 0
KCH1 272258Z 17013KT 31/21 A2974 RMK A01 T03130209  RH  054%=      5-min Rain = 0
KCH1 272259Z 16013G18KT 31/21 A2974 RMK A01 T03140208  RH  054%=      5-min Rain = 0
KCH1 272300Z 17014KT 31/21 A2974 RMK A01 T03140207  RH  053%=      5-min Rain = 0
KCH1 272301Z 17012KT 31/21 A2974 RMK A01 T03140207  RH  053%=      5-min Rain = 0
KCH1 272302Z 18013G19KT 31/21 A2974 RMK A01 T03140209  RH  054%=      5-min Rain = 0
KCH1 272303Z 18015KT 31/21 A2974 RMK A01 T03140205  RH  052%=      5-min Rain = 0
KCH1 272304Z 17011KT 31/21 A2974 RMK A01 T03140209  RH  054%=      5-min Rain = 0
KCH1 272305Z 17013KT 31/21 A2974 RMK A01 T03140208  RH  053%=      5-min Rain = 0
KCH1 272306Z 17015KT 31/21 A2974 RMK A01 T03140206  RH  053%=      5-min Rain = 0
KCH1 272307Z 17015KT 31/21 A2974 RMK A01 T03130207  RH  053%=      5-min Rain = 0
KCH1 272308Z 17015KT 31/21 A2974 RMK A01 T03110205  RH  053%=      5-min Rain = 0
KCH1 272309Z 17014KT 31/21 A2974 RMK A01 T03090205  RH  054%=      5-min Rain = 0
KCH1 272310Z 16014KT 31/21 A2974 RMK A01 T03080205  RH  054%=      5-min Rain = 0
KCH1 272311Z 17010KT 31/21 A2974 RMK A01 T03070206  RH  055%=      5-min Rain = 0
KCH1 272312Z 16010KT 31/21 A2974 RMK A01 T03070207  RH  055%=      5-min Rain = 0
KCH1 272313Z 17012KT 31/21 A2974 RMK A01 T03070206  RH  055%=      5-min Rain = 0
KCH1 272314Z 17012KT 31/21 A2974 RMK A01 T03070206  RH  055%=      5-min Rain = 0
KCH1 272315Z 17011KT 31/21 A2974 RMK A01 T03060207  RH  055%=      5-min Rain = 0
KCH1 272316Z 17010KT 31/21 A2974 RMK A01 T03060206  RH  055%=      5-min Rain = 0
KCH1 272317Z 17008KT 31/21 A2974 RMK A01 T03060207  RH  055%=      5-min Rain = 0
KCH1 272318Z 16010KT 31/21 A2974 RMK A01 T03070209  RH  056%=      5-min Rain = 0
KCH1 272319Z 18011KT 31/21 A2974 RMK A01 T03090207  RH  055%=      5-min Rain = 0
KCH1 272320Z 18012KT 31/21 A2974 RMK A01 T03100206  RH  054%=      5-min Rain = 0
KCH1 272321Z 17012KT 31/21 A2974 RMK A01 T03110206  RH  054%=      5-min Rain = 0
KCH1 272322Z 17012KT 31/21 A2974 RMK A01 T03110206  RH  053%=      5-min Rain = 0
KCH1 272323Z 17013G19KT 31/21 A2974 RMK A01 T03110206  RH  053%=      5-min Rain = 0
KCH1 272324Z 17015G20KT 31/21 A2974 RMK A01 T03120205  RH  053%=      5-min Rain = 0
KCH1 272325Z 17012KT 31/21 A2974 RMK A01 T03120206  RH  053%=      5-min Rain = 0
KCH1 272326Z 17013KT 31/21 A2974 RMK A01 T03120205  RH  053%=      5-min Rain = 0
KCH1 272327Z 16012KT 31/21 A2974 RMK A01 T03120208  RH  054%=      5-min Rain = 0
KCH1 272328Z 16011KT 31/21 A2974 RMK A01 T03120207  RH  054%=      5-min Rain = 0
KCH1 272329Z 17011KT 31/21 A2974 RMK A01 T03120208  RH  054%=      5-min Rain = 0
KCH1 272330Z 16012KT 31/21 A2974 RMK A01 T03120210  RH  055%=      5-min Rain = 0
KCH1 272331Z 16014KT 31/21 A2974 RMK A01 T03120206  RH  053%=      5-min Rain = 0
KCH1 272332Z 16013G18KT 31/21 A2974 RMK A01 T03120205  RH  053%=      5-min Rain = 0
KCH1 272333Z 16015KT 31/21 A2974 RMK A01 T03120206  RH  053%=      5-min Rain = 0
KCH1 272334Z 17013KT 31/21 A2974 RMK A01 T03120205  RH  053%=      5-min Rain = 0
KCH1 272335Z 17015G22KT 31/21 A2974 RMK A01 T03120205  RH  053%=      5-min Rain = 0
KCH1 272336Z 17017KT 31/20 A2974 RMK A01 T03120202  RH  052%=      5-min Rain = 0
KCH1 272337Z 18012G17KT 31/20 A2974 RMK A01 T03120203  RH  053%=      5-min Rain = 0
KCH1 272338Z 17012G17KT 31/21 A2974 RMK A01 T03120206  RH  053%=      5-min Rain = 0
KCH1 272339Z 17015KT 31/20 A2974 RMK A01 T03120204  RH  053%=      5-min Rain = 0
KCH1 272340Z 17014G19KT 31/21 A2974 RMK A01 T03120206  RH  053%=      5-min Rain = 0
KCH1 272341Z 16014KT 31/20 A2974 RMK A01 T03120204  RH  053%=      5-min Rain = 0
KCH1 272342Z 17015KT 31/20 A2974 RMK A01 T03110204  RH  053%=      5-min Rain = 0
KCH1 272343Z 17014KT 31/20 A2974 RMK A01 T03120204  RH  053%=      5-min Rain = 0
KCH1 272344Z 17012KT 31/20 A2974 RMK A01 T03110204  RH  053%=      5-min Rain = 0
KCH1 272345Z 18010G16KT 31/21 A2974 RMK A01 T03110208  RH  054%=      5-min Rain = 0
KCH1 272346Z 17010KT 31/21 A2974 RMK A01 T03110209  RH  054%=      5-min Rain = 0
KCH1 272347Z 18012KT 31/21 A2974 RMK A01 T03110208  RH  054%=      5-min Rain = 0
KCH1 272348Z 18012KT 31/21 A2974 RMK A01 T03100205  RH  054%=      5-min Rain = 0
KCH1 272349Z 17009KT 31/21 A2974 RMK A01 T03100208  RH  054%=      5-min Rain = 0
KCH1 272350Z 17011KT 31/21 A2974 RMK A01 T03090208  RH  055%=      5-min Rain = 0
KCH1 272351Z 17011KT 31/21 A2974 RMK A01 T03090208  RH  055%=      5-min Rain = 0
KCH1 272352Z 16009KT 31/21 A2974 RMK A01 T03090209  RH  055%=      5-min Rain = 0
KCH1 272353Z 17009KT 31/21 A2974 RMK A01 T03090209  RH  055%=      5-min Rain = 0
KCH1 272354Z 17008KT 31/21 A2974 RMK A01 T03080211  RH  056%=      5-min Rain = 0
KCH1 272355Z 17012KT 31/21 A2974 RMK A01 T03090210  RH  056%=      5-min Rain = 0
KCH1 272356Z 17011KT 31/21 A2974 RMK A01 T03080207  RH  055%=      5-min Rain = 0
KCH1 272357Z 17010KT 31/21 A2974 RMK A01 T03080209  RH  056%=      5-min Rain = 0
KCH1 272358Z 17010G15KT 31/21 A2974 RMK A01 T03070209  RH  056%=      5-min Rain = 0
KCH1 272359Z 17014KT 31/21 A2974 RMK A01 T03070206  RH  055%=      5-min Rain = 0
KCH1 280000Z 17012G17KT 31/21 A2974 RMK A01 T03070207  RH  055%=      5-min Rain = 0
KCH1 280001Z 16012G17KT 31/21 A2974 RMK A01 T03070207  RH  055%=      5-min Rain = 0
KCH1 280002Z 16009KT 31/21 A2974 RMK A01 T03060208  RH  056%=      5-min Rain = 0
KCH1 280003Z 17009KT 31/21 A2974 RMK A01 T03060208  RH  056%=      5-min Rain = 0
KCH1 280004Z 16014KT 31/21 A2974 RMK A01 T03060206  RH  055%=      5-min Rain = 0
KCH1 280005Z 17012KT 31/21 A2974 RMK A01 T03050205  RH  055%=      5-min Rain = 0
KCH1 280006Z 17013KT 31/21 A2974 RMK A01 T03050205  RH  055%=      5-min Rain = 0
KCH1 280007Z 17014KT 31/20 A2973 RMK A01 T03050204  RH  055%=      5-min Rain = 0
KCH1 280008Z 18015KT 31/20 A2973 RMK A01 T03050204  RH  055%=      5-min Rain = 0
KCH1 280009Z 17012KT 31/20 A2973 RMK A01 T03050203  RH  055%=      5-min Rain = 0
KCH1 280010Z 17011G16KT 31/20 A2973 RMK A01 T03050204  RH  055%=      5-min Rain = 0
KCH1 280011Z 16012KT 31/20 A2973 RMK A01 T03050204  RH  055%=      5-min Rain = 0
KCH1 280012Z 17011KT 31/21 A2973 RMK A01 T03050205  RH  055%=      5-min Rain = 0
KCH1 280013Z 17009KT 31/21 A2973 RMK A01 T03050206  RH  056%=      5-min Rain = 0
KCH1 280014Z 17008KT 30/21 A2973 RMK A01 T03040208  RH  057%=      5-min Rain = 0
KCH1 280015Z 17009G15KT 30/21 A2973 RMK A01 T03040207  RH  056%=      5-min Rain = 0
KCH1 280016Z 17009KT 30/21 A2973 RMK A01 T03030208  RH  057%=      5-min Rain = 0
KCH1 280017Z 18009KT 30/21 A2973 RMK A01 T03030207  RH  056%=      5-min Rain = 0
KCH1 280018Z 16008KT 30/21 A2973 RMK A01 T03030208  RH  057%=      5-min Rain = 0
KCH1 280019Z 17013G18KT 30/21 A2973 RMK A01 T03030208  RH  057%=      5-min Rain = 0
KCH1 280020Z 16010KT 30/21 A2973 RMK A01 T03030206  RH  056%=      5-min Rain = 0
KCH1 280021Z 16010KT 30/21 A2973 RMK A01 T03030209  RH  057%=      5-min Rain = 0
KCH1 280022Z 17011KT 30/21 A2973 RMK A01 T03020209  RH  058%=      5-min Rain = 0
KCH1 280023Z 16009KT 30/21 A2973 RMK A01 T03020210  RH  058%=      5-min Rain = 0
KCH1 280024Z 16010KT 30/21 A2973 RMK A01 T03010210  RH  058%=      5-min Rain = 0
KCH1 280025Z 17011KT 30/21 A2973 RMK A01 T03000210  RH  059%=      5-min Rain = 0
KCH1 280026Z 16010KT 30/21 A2973 RMK A01 T03000211  RH  059%=      5-min Rain = 0
KCH1 280027Z 16011KT 30/21 A2973 RMK A01 T03000210  RH  059%=      5-min Rain = 0
KCH1 280028Z 16012KT 30/21 A2973 RMK A01 T02990210  RH  059%=      5-min Rain = 0
KCH1 280029Z 16011G21KT 30/21 A2973 RMK A01 T02990211  RH  059%=      5-min Rain = 0
KCH1 280030Z 16014KT 30/21 A2973 RMK A01 T02990210  RH  059%=      5-min Rain = 0
KCH1 280031Z 16014KT 30/21 A2973 RMK A01 T02990210  RH  059%=      5-min Rain = 0
KCH1 280032Z 15011G17KT 30/21 A2973 RMK A01 T02980210  RH  059%=      5-min Rain = 0
KCH1 280033Z 16010KT 30/21 A2973 RMK A01 T02980211  RH  059%=      5-min Rain = 0
KCH1 280034Z 17012KT 30/21 A2973 RMK A01 T02980211  RH  060%=      5-min Rain = 0
KCH1 280035Z 16012KT 30/21 A2973 RMK A01 T02970211  RH  060%=      5-min Rain = 0
KCH1 280036Z 16011KT 30/21 A2973 RMK A01 T02970211  RH  060%=      5-min Rain = 0
KCH1 280037Z 16012KT 30/21 A2973 RMK A01 T02960211  RH  060%=      5-min Rain = 0
KCH1 280038Z 15012KT 30/21 A2973 RMK A01 T02960211  RH  060%=      5-min Rain = 0
KCH1 280039Z 16009G16KT 30/21 A2973 RMK A01 T02960211  RH  060%=      5-min Rain = 0
KCH1 280040Z 15009KT 30/21 A2973 RMK A01 T02960212  RH  061%=      5-min Rain = 0
KCH1 280041Z 15009KT 30/21 A2973 RMK A01 T02950212  RH  061%=      5-min Rain = 0
KCH1 280042Z 15011KT 29/21 A2973 RMK A01 T02940211  RH  061%=      5-min Rain = 0
KCH1 280043Z 16008KT 29/21 A2973 RMK A01 T02940212  RH  061%=      5-min Rain = 0
KCH1 280044Z 16011G17KT 29/21 A2973 RMK A01 T02930212  RH  062%=      5-min Rain = 0
KCH1 280045Z 16015G20KT 29/21 A2973 RMK A01 T02930209  RH  061%=      5-min Rain = 0
KCH1 280046Z 15013KT 29/21 A2973 RMK A01 T02930210  RH  061%=      5-min Rain = 0
KCH1 280047Z 16013KT 29/21 A2973 RMK A01 T02930211  RH  061%=      5-min Rain = 0
KCH1 280048Z 15013KT 29/21 A2973 RMK A01 T02930210  RH  061%=      5-min Rain = 0
KCH1 280049Z 15010KT 29/21 A2973 RMK A01 T02930211  RH  061%=      5-min Rain = 0
KCH1 280050Z 16010KT 29/21 A2973 RMK A01 T02920212  RH  062%=      5-min Rain = 0
KCH1 280051Z 16010KT 29/21 A2973 RMK A01 T02920211  RH  062%=      5-min Rain = 0
KCH1 280052Z 15013KT 29/21 A2973 RMK A01 T02910211  RH  062%=      5-min Rain = 0
KCH1 280053Z 16016G21KT 29/21 A2973 RMK A01 T02910209  RH  061%=      5-min Rain = 0
KCH1 280054Z 16014KT 29/21 A2973 RMK A01 T02910209  RH  061%=      5-min Rain = 0
KCH1 280055Z 15013G18KT 29/21 A2973 RMK A01 T02910210  RH  061%=      5-min Rain = 0
KCH1 280056Z 15012G17KT 29/21 A2973 RMK A01 T02910209  RH  061%=      5-min Rain = 0
KCH1 280057Z 16011KT 29/21 A2973 RMK A01 T02910210  RH  062%=      5-min Rain = 0
KCH1 280058Z 15010G15KT 29/21 A2973 RMK A01 T02900211  RH  062%=      5-min Rain = 0
KCH1 280059Z 16010G15KT 29/21 A2973 RMK A01 T02890210  RH  063%=      5-min Rain = 0
KCH1 280100Z 16012KT 29/21 A2973 RMK A01 T02880210  RH  063%=      5-min Rain = 0
KCH1 280101Z 16009KT 29/21 A2973 RMK A01 T02880210  RH  063%=      5-min Rain = 0
KCH1 280102Z 16007KT 29/21 A2973 RMK A01 T02880211  RH  063%=      5-min Rain = 0
KCH1 280103Z 16007KT 29/21 A2973 RMK A01 T02870211  RH  063%=      5-min Rain = 0
KCH1 280104Z 15008KT 29/21 A2973 RMK A01 T02860211  RH  064%=      5-min Rain = 0
KCH1 280105Z 16010KT 29/21 A2973 RMK A01 T02860211  RH  064%=      5-min Rain = 0
KCH1 280106Z 16012KT 29/21 A2973 RMK A01 T02850210  RH  064%=      5-min Rain = 0
KCH1 280107Z 16011KT 29/21 A2973 RMK A01 T02850209  RH  063%=      5-min Rain = 0
KCH1 280108Z 15010KT 29/21 A2973 RMK A01 T02850209  RH  063%=      5-min Rain = 0
KCH1 280109Z 16012KT 29/21 A2973 RMK A01 T02850208  RH  063%=      5-min Rain = 0
KCH1 280110Z 16011KT 29/21 A2973 RMK A01 T02850208  RH  063%=      5-min Rain = 0
KCH1 280111Z 16012G17KT 29/21 A2973 RMK A01 T02850208  RH  063%=      5-min Rain = 0
KCH1 280112Z 15009KT 29/21 A2973 RMK A01 T02850208  RH  063%=      5-min Rain = 0
KCH1 280113Z 16012G17KT 28/21 A2973 RMK A01 T02840207  RH  063%=      5-min Rain = 0
KCH1 280114Z 15012KT 28/21 A2973 RMK A01 T02840207  RH  063%=      5-min Rain = 0
KCH1 280115Z 16012KT 28/21 A2973 RMK A01 T02840206  RH  063%=      5-min Rain = 0
KCH1 280116Z 16012KT 28/21 A2973 RMK A01 T02840206  RH  063%=      5-min Rain = 0
KCH1 280117Z 16009KT 28/21 A2974 RMK A01 T02840207  RH  063%=      5-min Rain = 0
KCH1 280118Z 15013G19KT 28/21 A2974 RMK A01 T02830207  RH  063%=      5-min Rain = 0
KCH1 280119Z 16013G18KT 28/21 A2973 RMK A01 T02830206  RH  063%=      5-min Rain = 0
KCH1 280120Z 15011KT 28/21 A2973 RMK A01 T02830207  RH  063%=      5-min Rain = 0
KCH1 280121Z 15010KT 28/21 A2974 RMK A01 T02830207  RH  063%=      5-min Rain = 0
KCH1 280122Z 16010KT 28/21 A2973 RMK A01 T02820206  RH  063%=      5-min Rain = 0
KCH1 280123Z 16012KT 28/21 A2974 RMK A01 T02820206  RH  063%=      5-min Rain = 0
KCH1 280124Z 15012KT 28/21 A2973 RMK A01 T02820205  RH  063%=      5-min Rain = 0
KCH1 280125Z 16013KT 28/21 A2974 RMK A01 T02820206  RH  063%=      5-min Rain = 0
KCH1 280126Z 16011KT 28/21 A2974 RMK A01 T02820206  RH  063%=      5-min Rain = 0
KCH1 280127Z 16010KT 28/21 A2974 RMK A01 T02810206  RH  064%=      5-min Rain = 0
KCH1 280128Z 15011KT 28/21 A2974 RMK A01 T02810206  RH  064%=      5-min Rain = 0
KCH1 280129Z 15013G18KT 28/21 A2974 RMK A01 T02800206  RH  064%=      5-min Rain = 0
KCH1 280130Z 15012KT 28/21 A2974 RMK A01 T02800205  RH  064%=      5-min Rain = 0
KCH1 280131Z 16011KT 28/21 A2974 RMK A01 T02800206  RH  064%=      5-min Rain = 0
KCH1 280132Z 15011KT 28/21 A2974 RMK A01 T02800206  RH  064%=      5-min Rain = 0
KCH1 280133Z 15013KT 28/21 A2974 RMK A01 T02790206  RH  064%=      5-min Rain = 0
KCH1 280134Z 15011KT 28/21 A2974 RMK A01 T02790206  RH  064%=      5-min Rain = 0
KCH1 280135Z 15011KT 28/21 A2974 RMK A01 T02790206  RH  065%=      5-min Rain = 0
KCH1 280136Z 16012KT 28/21 A2974 RMK A01 T02790206  RH  065%=      5-min Rain = 0
KCH1 280137Z 16012KT 28/21 A2974 RMK A01 T02780206  RH  065%=      5-min Rain = 0
KCH1 280138Z 15010KT 28/21 A2974 RMK A01 T02780206  RH  065%=      5-min Rain = 0
KCH1 280139Z 16012KT 28/21 A2974 RMK A01 T02770207  RH  065%=      5-min Rain = 0
KCH1 280140Z 15010KT 28/21 A2974 RMK A01 T02770206  RH  066%=      5-min Rain = 0
KCH1 280141Z 16010KT 28/21 A2974 RMK A01 T02760207  RH  066%=      5-min Rain = 0
KCH1 280142Z 15010KT 28/21 A2974 RMK A01 T02760207  RH  066%=      5-min Rain = 0
KCH1 280143Z 15013KT 28/21 A2974 RMK A01 T02750206  RH  066%=      5-min Rain = 0
KCH1 280144Z 15011KT 28/21 A2974 RMK A01 T02760206  RH  066%=      5-min Rain = 0
KCH1 280145Z 15013KT 28/21 A2974 RMK A01 T02760207  RH  066%=      5-min Rain = 0
KCH1 280146Z 15011KT 28/21 A2974 RMK A01 T02760206  RH  066%=      5-min Rain = 0
KCH1 280147Z 15011G16KT 28/21 A2974 RMK A01 T02750206  RH  066%=      5-min Rain = 0
KCH1 280148Z 16013KT 28/21 A2974 RMK A01 T02750206  RH  066%=      5-min Rain = 0
KCH1 280149Z 16011KT 27/21 A2974 RMK A01 T02740206  RH  066%=      5-min Rain = 0
KCH1 280150Z 15010KT 27/21 A2974 RMK A01 T02740206  RH  067%=      5-min Rain = 0
KCH1 280151Z 15012KT 27/21 A2974 RMK A01 T02740206  RH  067%=      5-min Rain = 0
KCH1 280152Z 15011KT 27/21 A2974 RMK A01 T02730206  RH  067%=      5-min Rain = 0
KCH1 280153Z 15012KT 27/21 A2974 RMK A01 T02730206  RH  067%=      5-min Rain = 0
KCH1 280154Z 15011KT 27/21 A2974 RMK A01 T02730206  RH  067%=      5-min Rain = 0
KCH1 280155Z 16011G16KT 27/21 A2974 RMK A01 T02720206  RH  067%=      5-min Rain = 0
KCH1 280156Z 15013G18KT 27/21 A2974 RMK A01 T02720206  RH  067%=      5-min Rain = 0
KCH1 280157Z 16012KT 27/21 A2974 RMK A01 T02720205  RH  067%=      5-min Rain = 0
KCH1 280158Z 16011G17KT 27/21 A2974 RMK A01 T02720205  RH  067%=      5-min Rain = 0
KCH1 280159Z 16013KT 27/21 A2974 RMK A01 T02720205  RH  067%=      5-min Rain = 0
KCH1 280200Z 15012KT 27/21 A2974 RMK A01 T02720205  RH  067%=      5-min Rain = 0
KCH1 280201Z 15010KT 27/21 A2974 RMK A01 T02720205  RH  067%=      5-min Rain = 0
KCH1 280202Z 15010KT 27/21 A2974 RMK A01 T02710205  RH  067%=      5-min Rain = 0
KCH1 280203Z 15012KT 27/20 A2974 RMK A01 T02700204  RH  067%=      5-min Rain = 0
KCH1 280204Z 15011KT 27/21 A2974 RMK A01 T02700205  RH  067%=      5-min Rain = 0
KCH1 280205Z 15011KT 27/20 A2974 RMK A01 T02700204  RH  067%=      5-min Rain = 0
KCH1 280211Z 15011KT 27/20 A2975 RMK A01 T02690203  RH  067%=      5-min Rain = 0
KCH1 280212Z 15009KT 27/20 A2975 RMK A01 T02690204  RH  067%=      5-min Rain = 0
KCH1 280213Z 15009G14KT 27/20 A2975 RMK A01 T02680204  RH  068%=      5-min Rain = 0
KCH1 280214Z 15009G14KT 27/20 A2975 RMK A01 T02670203  RH  068%=      5-min Rain = 0
KCH1 280215Z 15012KT 27/20 A2975 RMK A01 T02670203  RH  068%=      5-min Rain = 0
KCH1 280216Z 15012KT 27/20 A2975 RMK A01 T02670203  RH  068%=      5-min Rain = 0
KCH1 280217Z 15012KT 27/20 A2975 RMK A01 T02670202  RH  068%=      5-min Rain = 0
KCH1 280218Z 15009KT 27/20 A2975 RMK A01 T02680203  RH  068%=      5-min Rain = 0
KCH1 280219Z 15010G15KT 27/20 A2975 RMK A01 T02670203  RH  068%=      5-min Rain = 0
KCH1 280220Z 15010KT 27/20 A2975 RMK A01 T02660203  RH  068%=      5-min Rain = 0
KCH1 280221Z 15009KT 27/20 A2975 RMK A01 T02660202  RH  068%=      5-min Rain = 0
KCH1 280222Z 14009KT 27/20 A2975 RMK A01 T02660202  RH  068%=      5-min Rain = 0
KCH1 280223Z 15013KT 27/20 A2975 RMK A01 T02660202  RH  068%=      5-min Rain = 0
KCH1 280224Z 15011KT 27/20 A2975 RMK A01 T02660201  RH  068%=      5-min Rain = 0
KCH1 280225Z 14009KT 27/20 A2975 RMK A01 T02660202  RH  068%=      5-min Rain = 0
KCH1 280226Z 15009KT 27/20 A2975 RMK A01 T02660202  RH  068%=      5-min Rain = 0
KCH1 280227Z 15013KT 27/20 A2975 RMK A01 T02650202  RH  068%=      5-min Rain = 0
KCH1 280228Z 15012KT 27/20 A2975 RMK A01 T02650201  RH  068%=      5-min Rain = 0
KCH1 280229Z 14011KT 27/20 A2975 RMK A01 T02650201  RH  068%=      5-min Rain = 0
KCH1 280230Z 15009KT 27/20 A2975 RMK A01 T02650201  RH  068%=      5-min Rain = 0
KCH1 280231Z 15012KT 27/20 A2975 RMK A01 T02650201  RH  068%=      5-min Rain = 0
KCH1 280232Z 15011KT 27/20 A2975 RMK A01 T02650201  RH  068%=      5-min Rain = 0
KCH1 280233Z 15012KT 27/20 A2975 RMK A01 T02650201  RH  068%=      5-min Rain = 0
KCH1 280234Z 15010G15KT 26/20 A2975 RMK A01 T02640201  RH  068%=      5-min Rain = 0
KCH1 280235Z 14012KT 26/20 A2975 RMK A01 T02640201  RH  068%=      5-min Rain = 0
KCH1 280236Z 15011KT 26/20 A2975 RMK A01 T02640201  RH  068%=      5-min Rain = 0
KCH1 280237Z 15010KT 26/20 A2975 RMK A01 T02630201  RH  069%=      5-min Rain = 0
KCH1 280238Z 15008KT 26/20 A2975 RMK A01 T02630201  RH  069%=      5-min Rain = 0
KCH1 280239Z 14010KT 26/20 A2975 RMK A01 T02620201  RH  069%=      5-min Rain = 0
KCH1 280240Z 15008KT 26/20 A2975 RMK A01 T02620201  RH  069%=      5-min Rain = 0
KCH1 280241Z 15010KT 26/20 A2975 RMK A01 T02610201  RH  070%=      5-min Rain = 0
KCH1 280242Z 15013KT 26/20 A2975 RMK A01 T02610201  RH  070%=      5-min Rain = 0
KCH1 280243Z 15010KT 26/20 A2975 RMK A01 T02610200  RH  069%=      5-min Rain = 0
KCH1 280244Z 15009KT 26/20 A2975 RMK A01 T02620200  RH  069%=      5-min Rain = 0
KCH1 280245Z 15013G19KT 26/20 A2975 RMK A01 T02610200  RH  069%=      5-min Rain = 0
KCH1 280246Z 14011KT 26/20 A2975 RMK A01 T02620200  RH  069%=      5-min Rain = 0
KCH1 280247Z 15012KT 26/20 A2975 RMK A01 T02620200  RH  069%=      5-min Rain = 0
KCH1 280248Z 15011KT 26/20 A2975 RMK A01 T02610200  RH  069%=      5-min Rain = 0
KCH1 280249Z 15012KT 26/20 A2975 RMK A01 T02620200  RH  069%=      5-min Rain = 0
KCH1 280250Z 15009KT 26/20 A2975 RMK A01 T02620200  RH  069%=      5-min Rain = 0
KCH1 280251Z 15011KT 26/20 A2975 RMK A01 T02610200  RH  069%=      5-min Rain = 0
KCH1 280252Z 15011KT 26/20 A2975 RMK A01 T02610200  RH  069%=      5-min Rain = 0
KCH1 280253Z 14010KT 26/20 A2975 RMK A01 T02610200  RH  069%=      5-min Rain = 0
KCH1 280254Z 14009KT 26/20 A2975 RMK A01 T02610200  RH  069%=      5-min Rain = 0
KCH1 280255Z 15010KT 26/20 A2975 RMK A01 T02600199  RH  069%=      5-min Rain = 0
KCH1 280256Z 14010KT 26/20 A2975 RMK A01 T02600199  RH  069%=      5-min Rain = 0
KCH1 280257Z 15010KT 26/20 A2975 RMK A01 T02600199  RH  069%=      5-min Rain = 0
KCH1 280258Z 15011KT 26/20 A2975 RMK A01 T02600199  RH  069%=      5-min Rain = 0
KCH1 280259Z 15013G19KT 26/20 A2975 RMK A01 T02600198  RH  069%=      5-min Rain = 0
KCH1 280300Z 15011KT 26/20 A2975 RMK A01 T02610198  RH  069%=      5-min Rain = 0
KCH1 280301Z 15012KT 26/20 A2975 RMK A01 T02610198  RH  069%=      5-min Rain = 0
KCH1 280302Z 15012KT 26/20 A2975 RMK A01 T02610198  RH  068%=      5-min Rain = 0
KCH1 280303Z 14010KT 26/20 A2975 RMK A01 T02610198  RH  069%=      5-min Rain = 0
KCH1 280304Z 15013KT 26/20 A2975 RMK A01 T02600198  RH  069%=      5-min Rain = 0
KCH1 280305Z 15013KT 26/20 A2975 RMK A01 T02600198  RH  069%=      5-min Rain = 0
KCH1 280306Z 14011KT 26/20 A2975 RMK A01 T02600198  RH  069%=      5-min Rain = 0
KCH1 280307Z 14011KT 26/20 A2975 RMK A01 T02600198  RH  069%=      5-min Rain = 0
KCH1 280308Z 14011KT 26/20 A2975 RMK A01 T02590198  RH  069%=      5-min Rain = 0
KCH1 280309Z 14010KT 26/20 A2975 RMK A01 T02590198  RH  069%=      5-min Rain = 0
KCH1 280310Z 14011KT 26/20 A2975 RMK A01 T02590198  RH  069%=      5-min Rain = 0
KCH1 280311Z 15011KT 26/20 A2975 RMK A01 T02590198  RH  069%=      5-min Rain = 0
KCH1 280312Z 14011G17KT 26/20 A2975 RMK A01 T02580198  RH  069%=      5-min Rain = 0
KCH1 280313Z 15014KT 26/20 A2975 RMK A01 T02580198  RH  069%=      5-min Rain = 0
KCH1 280314Z 15013KT 26/20 A2975 RMK A01 T02580197  RH  069%=      5-min Rain = 0
KCH1 280315Z 15010KT 26/20 A2975 RMK A01 T02590198  RH  069%=      5-min Rain = 0
KCH1 280316Z 15012KT 26/20 A2975 RMK A01 T02580198  RH  069%=      5-min Rain = 0
KCH1 280317Z 15011KT 26/20 A2975 RMK A01 T02580198  RH  069%=      5-min Rain = 0
KCH1 280318Z 14011KT 26/20 A2975 RMK A01 T02580198  RH  069%=      5-min Rain = 0
KCH1 280319Z 14010KT 26/20 A2975 RMK A01 T02580198  RH  070%=      5-min Rain = 0
KCH1 280320Z 15009KT 26/20 A2975 RMK A01 T02570198  RH  070%=      5-min Rain = 0
KCH1 280321Z 14011KT 26/20 A2975 RMK A01 T02560198  RH  070%=      5-min Rain = 0
KCH1 280322Z 15011KT 26/20 A2975 RMK A01 T02560198  RH  070%=      5-min Rain = 0
KCH1 280323Z 15010KT 26/20 A2975 RMK A01 T02560198  RH  070%=      5-min Rain = 0
KCH1 280324Z 15009KT 26/20 A2975 RMK A01 T02550198  RH  071%=      5-min Rain = 0
KCH1 280325Z 15012KT 26/20 A2975 RMK A01 T02550198  RH  071%=      5-min Rain = 0
KCH1 280326Z 15008KT 26/20 A2975 RMK A01 T02550198  RH  071%=      5-min Rain = 0
KCH1 280327Z 15010KT 26/20 A2975 RMK A01 T02550198  RH  071%=      5-min Rain = 0
KCH1 280328Z 14011G16KT 26/20 A2975 RMK A01 T02550198  RH  071%=      5-min Rain = 0
KCH1 280329Z 14012KT 26/20 A2975 RMK A01 T02550198  RH  071%=      5-min Rain = 0
KCH1 280330Z 16012KT 26/20 A2975 RMK A01 T02550198  RH  071%=      5-min Rain = 0
KCH1 280331Z 15012KT 26/20 A2975 RMK A01 T02550198  RH  071%=      5-min Rain = 0
KCH1 280332Z 15011KT 26/20 A2975 RMK A01 T02550198  RH  071%=      5-min Rain = 0
KCH1 280333Z 15011KT 26/20 A2975 RMK A01 T02550198  RH  071%=      5-min Rain = 0
KCH1 280334Z 15010KT 26/20 A2975 RMK A01 T02550198  RH  071%=      5-min Rain = 0
KCH1 280335Z 15012KT 26/20 A2975 RMK A01 T02550198  RH  071%=      5-min Rain = 0
KCH1 280336Z 14010KT 26/20 A2975 RMK A01 T02550198  RH  071%=      5-min Rain = 0
KCH1 280337Z 15009KT 26/20 A2975 RMK A01 T02550199  RH  071%=      5-min Rain = 0
KCH1 280338Z 15013G18KT 26/20 A2975 RMK A01 T02550199  RH  071%=      5-min Rain = 0
KCH1 280339Z 15013KT 25/20 A2976 RMK A01 T02540198  RH  071%=      5-min Rain = 0
KCH1 280340Z 15011KT 26/20 A2976 RMK A01 T02550198  RH  071%=      5-min Rain = 0
KCH1 280341Z 15013G18KT 26/20 A2976 RMK A01 T02550199  RH  071%=      5-min Rain = 0
KCH1 280342Z 16015KT 25/20 A2976 RMK A01 T02540198  RH  071%=      5-min Rain = 0
KCH1 280343Z 15012KT 25/20 A2976 RMK A01 T02540198  RH  071%=      5-min Rain = 0
KCH1 280344Z 15013KT 25/20 A2976 RMK A01 T02540198  RH  071%=      5-min Rain = 0
KCH1 280345Z 15013KT 26/20 A2976 RMK A01 T02550198  RH  071%=      5-min Rain = 0
KCH1 280346Z 15011KT 26/20 A2976 RMK A01 T02550198  RH  071%=      5-min Rain = 0
KCH1 280347Z 15010KT 25/20 A2976 RMK A01 T02540198  RH  071%=      5-min Rain = 0
KCH1 280348Z 15010KT 25/20 A2976 RMK A01 T02540199  RH  072%=      5-min Rain = 0
KCH1 280349Z 15012KT 25/20 A2976 RMK A01 T02530198  RH  072%=      5-min Rain = 0
KCH1 280350Z 14012KT 25/20 A2976 RMK A01 T02530198  RH  072%=      5-min Rain = 0
KCH1 280351Z 15011KT 25/20 A2976 RMK A01 T02530198  RH  072%=      5-min Rain = 0
KCH1 280352Z 15012G17KT 25/20 A2976 RMK A01 T02520198  RH  072%=      5-min Rain = 0
KCH1 280353Z 16012KT 25/20 A2976 RMK A01 T02530198  RH  072%=      5-min Rain = 0
KCH1 280354Z 14013G18KT 25/20 A2976 RMK A01 T02530198  RH  072%=      5-min Rain = 0
KCH1 280355Z 14011KT 25/20 A2976 RMK A01 T02520198  RH  072%=      5-min Rain = 0
KCH1 280356Z 14010KT 25/20 A2976 RMK A01 T02520198  RH  072%=      5-min Rain = 0
KCH1 280357Z 15011KT 25/20 A2976 RMK A01 T02510198  RH  072%=      5-min Rain = 0
KCH1 280358Z 14014KT 25/20 A2976 RMK A01 T02510198  RH  072%=      5-min Rain = 0
KCH1 280359Z 14012KT 25/20 A2976 RMK A01 T02510198  RH  072%=      5-min Rain = 0
KCH1 280400Z 15013KT 25/20 A2976 RMK A01 T02510197  RH  072%=      5-min Rain = 0
KCH1 280401Z 15012KT 25/20 A2976 RMK A01 T02510197  RH  072%=      5-min Rain = 0
KCH1 280402Z 14013KT 25/20 A2976 RMK A01 T02510198  RH  072%=      5-min Rain = 0
KCH1 280403Z 14012G18KT 25/20 A2976 RMK A01 T02510197  RH  072%=      5-min Rain = 0
KCH1 280404Z 15012KT 25/20 A2976 RMK A01 T02510197  RH  072%=      5-min Rain = 0
KCH1 280405Z 15012KT 25/20 A2976 RMK A01 T02510197  RH  072%=      5-min Rain = 0
KCH1 280406Z 15013KT 25/20 A2976 RMK A01 T02500197  RH  072%=      5-min Rain = 0
KCH1 280407Z 15009KT 25/20 A2976 RMK A01 T02510197  RH  072%=      5-min Rain = 0
KCH1 280408Z 15011KT 25/20 A2976 RMK A01 T02500197  RH  073%=      5-min Rain = 0
KCH1 280409Z 16010KT 25/20 A2976 RMK A01 T02500197  RH  073%=      5-min Rain = 0
KCH1 280410Z 16010KT 25/20 A2976 RMK A01 T02490197  RH  073%=      5-min Rain = 0
KCH1 280411Z 15011KT 25/20 A2976 RMK A01 T02490197  RH  073%=      5-min Rain = 0
KCH1 280412Z 15009KT 25/20 A2976 RMK A01 T02490197  RH  073%=      5-min Rain = 0
KCH1 280413Z 15010KT 25/20 A2976 RMK A01 T02480197  RH  073%=      5-min Rain = 0
KCH1 280414Z 15010KT 25/20 A2976 RMK A01 T02480197  RH  073%=      5-min Rain = 0
KCH1 280415Z 14008KT 25/20 A2976 RMK A01 T02480197  RH  073%=      5-min Rain = 0
KCH1 280416Z 15009KT 25/20 A2976 RMK A01 T02470197  RH  074%=      5-min Rain = 0
KCH1 280417Z 14008KT 25/20 A2976 RMK A01 T02460197  RH  074%=      5-min Rain = 0
KCH1 280418Z 14009KT 25/20 A2976 RMK A01 T02460197  RH  074%=      5-min Rain = 0
KCH1 280419Z 14012KT 25/20 A2976 RMK A01 T02460197  RH  074%=      5-min Rain = 0
KCH1 280420Z 15011KT 25/20 A2976 RMK A01 T02460196  RH  074%=      5-min Rain = 0
KCH1 280421Z 14008KT 25/20 A2976 RMK A01 T02470197  RH  074%=      5-min Rain = 0
KCH1 280422Z 15008KT 25/20 A2976 RMK A01 T02460197  RH  074%=      5-min Rain = 0
KCH1 280423Z 15012G17KT 25/20 A2976 RMK A01 T02450197  RH  074%=      5-min Rain = 0
KCH1 280424Z 15008KT 25/20 A2976 RMK A01 T02450197  RH  074%=      5-min Rain = 0
KCH1 280425Z 15010KT 25/20 A2976 RMK A01 T02450197  RH  074%=      5-min Rain = 0
KCH1 280426Z 15009KT 25/20 A2976 RMK A01 T02450197  RH  074%=      5-min Rain = 0
KCH1 280427Z 15009G14KT 25/20 A2976 RMK A01 T02450197  RH  074%=      5-min Rain = 0
KCH1 280428Z 15010KT 25/20 A2976 RMK A01 T02450197  RH  075%=      5-min Rain = 0
KCH1 280429Z 15009KT 25/20 A2976 RMK A01 T02450197  RH  075%=      5-min Rain = 0
KCH1 280430Z 15010KT 24/20 A2976 RMK A01 T02440197  RH  075%=      5-min Rain = 0
KCH1 280431Z 15008KT 24/20 A2976 RMK A01 T02440197  RH  075%=      5-min Rain = 0
KCH1 280432Z 15009KT 24/20 A2976 RMK A01 T02430197  RH  075%=      5-min Rain = 0
KCH1 280433Z 15012KT 24/20 A2976 RMK A01 T02430196  RH  075%=      5-min Rain = 0
KCH1 280434Z 14012KT 24/20 A2976 RMK A01 T02430196  RH  075%=      5-min Rain = 0
KCH1 280435Z 15012KT 24/20 A2976 RMK A01 T02440196  RH  075%=      5-min Rain = 0
KCH1 280436Z 15011KT 24/20 A2976 RMK A01 T02440196  RH  074%=      5-min Rain = 0
KCH1 280437Z 14009KT 24/20 A2976 RMK A01 T02440197  RH  075%=      5-min Rain = 0
KCH1 280438Z 14012KT 24/20 A2976 RMK A01 T02440196  RH  075%=      5-min Rain = 0
KCH1 280439Z 15009KT 24/20 A2976 RMK A01 T02440196  RH  075%=      5-min Rain = 0
KCH1 280440Z 15010KT 24/20 A2976 RMK A01 T02430197  RH  075%=      5-min Rain = 0
KCH1 280441Z 15012KT 24/20 A2976 RMK A01 T02430197  RH  075%=      5-min Rain = 0
KCH1 280442Z 15011KT 24/20 A2976 RMK A01 T02430196  RH  075%=      5-min Rain = 0
KCH1 280443Z 14010KT 24/20 A2976 RMK A01 T02430196  RH  075%=      5-min Rain = 0
KCH1 280444Z 15010KT 24/20 A2976 RMK A01 T02430196  RH  075%=      5-min Rain = 0
KCH1 280445Z 14011KT 24/20 A2976 RMK A01 T02420196  RH  076%=      5-min Rain = 0
KCH1 280446Z 14010KT 24/20 A2976 RMK A01 T02420196  RH  076%=      5-min Rain = 0
KCH1 280447Z 14010KT 24/20 A2976 RMK A01 T02420196  RH  075%=      5-min Rain = 0
KCH1 280448Z 14013KT 24/20 A2976 RMK A01 T02420196  RH  075%=      5-min Rain = 0
KCH1 280449Z 15014KT 24/20 A2975 RMK A01 T02420196  RH  075%=      5-min Rain = 0
KCH1 280450Z 14012KT 24/20 A2975 RMK A01 T02430196  RH  075%=      5-min Rain = 0
KCH1 280451Z 14011KT 24/20 A2975 RMK A01 T02430196  RH  075%=      5-min Rain = 0
KCH1 280452Z 14011KT 24/20 A2975 RMK A01 T02420196  RH  076%=      5-min Rain = 0
KCH1 280453Z 14010KT 24/20 A2975 RMK A01 T02420196  RH  076%=      5-min Rain = 0
KCH1 280454Z 14010G17KT 24/20 A2975 RMK A01 T02410196  RH  076%=      5-min Rain = 0
KCH1 280455Z 14012KT 24/20 A2975 RMK A01 T02410196  RH  076%=      5-min Rain = 0
KCH1 280456Z 14010KT 24/20 A2975 RMK A01 T02410196  RH  076%=      5-min Rain = 0
KCH1 280457Z 14010KT 24/20 A2975 RMK A01 T02410197  RH  076%=      5-min Rain = 0
KCH1 280458Z 14010KT 24/20 A2975 RMK A01 T02410196  RH  076%=      5-min Rain = 0
KCH1 280459Z 15009KT 24/20 A2975 RMK A01 T02410196  RH  076%=      5-min Rain = 0

Page generated in 0.1227 seconds.